<?xml version="1.0" encoding="UTF-8" standalone="no" ?>
<gpx xmlns="http://www.topografix.com/GPX/1/1" xmlns:xsi="http://www.w3.org/2001/XMLSchema-instance" xsi:schemaLocation="http://www.topografix.com/GPX/1/1 http://www.topografix.com/GPX/1/1/gpx.xsd" version="1.1" creator="VisuGPX - https://www.visugpx.com">
  <metadata>
    <name>Louroux-Bourbonnais, gués et châteaux</name>
    <desc><![CDATA[balade entre Louroux-Bourbonnais et Vieure]]></desc>
  </metadata>
  <trk>
    <name><![CDATA[2014-10-11 Louroux-Bourbonnais gpsies]]></name>
    <trkseg>
      <trkpt lat="46.53341" lon="2.8398">
        <ele>319.3</ele>
        <time>2014-10-11T09:38:37Z</time>
      </trkpt>
      <trkpt lat="46.53343" lon="2.83975">
        <ele>319.3</ele>
        <time>2014-10-11T09:39:58Z</time>
      </trkpt>
      <trkpt lat="46.53355" lon="2.83972">
        <ele>320.74</ele>
        <time>2014-10-11T09:40:10Z</time>
      </trkpt>
      <trkpt lat="46.53364" lon="2.83975">
        <ele>321.22</ele>
        <time>2014-10-11T09:41:27Z</time>
      </trkpt>
      <trkpt lat="46.53372" lon="2.83978">
        <ele>321.7</ele>
        <time>2014-10-11T09:42:09Z</time>
      </trkpt>
      <trkpt lat="46.53394" lon="2.84002">
        <ele>321.7</ele>
        <time>2014-10-11T09:42:31Z</time>
      </trkpt>
      <trkpt lat="46.53406" lon="2.8401">
        <ele>321.7</ele>
        <time>2014-10-11T09:42:42Z</time>
      </trkpt>
      <trkpt lat="46.53417" lon="2.84023">
        <ele>322.18</ele>
        <time>2014-10-11T09:42:55Z</time>
      </trkpt>
      <trkpt lat="46.53434" lon="2.84041">
        <ele>322.18</ele>
        <time>2014-10-11T09:43:13Z</time>
      </trkpt>
      <trkpt lat="46.53445" lon="2.84051">
        <ele>323.14</ele>
        <time>2014-10-11T09:43:26Z</time>
      </trkpt>
      <trkpt lat="46.53465" lon="2.84074">
        <ele>323.62</ele>
        <time>2014-10-11T09:43:44Z</time>
      </trkpt>
      <trkpt lat="46.53481" lon="2.84089">
        <ele>323.62</ele>
        <time>2014-10-11T09:44:00Z</time>
      </trkpt>
      <trkpt lat="46.5349" lon="2.84096">
        <ele>324.1</ele>
        <time>2014-10-11T09:44:37Z</time>
      </trkpt>
      <trkpt lat="46.53506" lon="2.84108">
        <ele>325.06</ele>
        <time>2014-10-11T09:44:52Z</time>
      </trkpt>
      <trkpt lat="46.53525" lon="2.84125">
        <ele>326.5</ele>
        <time>2014-10-11T09:45:09Z</time>
      </trkpt>
      <trkpt lat="46.53532" lon="2.84138">
        <ele>326.99</ele>
        <time>2014-10-11T09:45:22Z</time>
      </trkpt>
      <trkpt lat="46.53532" lon="2.84166">
        <ele>327.47</ele>
        <time>2014-10-11T09:45:38Z</time>
      </trkpt>
      <trkpt lat="46.53525" lon="2.8419">
        <ele>327.47</ele>
        <time>2014-10-11T09:45:55Z</time>
      </trkpt>
      <trkpt lat="46.5352" lon="2.84202">
        <ele>327.47</ele>
        <time>2014-10-11T09:46:08Z</time>
      </trkpt>
      <trkpt lat="46.53498" lon="2.84233">
        <ele>326.02</ele>
        <time>2014-10-11T09:46:54Z</time>
      </trkpt>
      <trkpt lat="46.53484" lon="2.84257">
        <ele>326.02</ele>
        <time>2014-10-11T09:47:10Z</time>
      </trkpt>
      <trkpt lat="46.5347" lon="2.84292">
        <ele>326.02</ele>
        <time>2014-10-11T09:47:29Z</time>
      </trkpt>
      <trkpt lat="46.53462" lon="2.84339">
        <ele>326.02</ele>
        <time>2014-10-11T09:47:52Z</time>
      </trkpt>
      <trkpt lat="46.53456" lon="2.84368">
        <ele>326.02</ele>
        <time>2014-10-11T09:48:09Z</time>
      </trkpt>
      <trkpt lat="46.53448" lon="2.84399">
        <ele>325.54</ele>
        <time>2014-10-11T09:48:26Z</time>
      </trkpt>
      <trkpt lat="46.53444" lon="2.84428">
        <ele>325.54</ele>
        <time>2014-10-11T09:48:41Z</time>
      </trkpt>
      <trkpt lat="46.53433" lon="2.84462">
        <ele>325.06</ele>
        <time>2014-10-11T09:49:00Z</time>
      </trkpt>
      <trkpt lat="46.53427" lon="2.84474">
        <ele>325.06</ele>
        <time>2014-10-11T09:49:15Z</time>
      </trkpt>
      <trkpt lat="46.53419" lon="2.84501">
        <ele>324.58</ele>
        <time>2014-10-11T09:49:30Z</time>
      </trkpt>
      <trkpt lat="46.53408" lon="2.84546">
        <ele>324.1</ele>
        <time>2014-10-11T09:49:53Z</time>
      </trkpt>
      <trkpt lat="46.53408" lon="2.84585">
        <ele>323.62</ele>
        <time>2014-10-11T09:50:11Z</time>
      </trkpt>
      <trkpt lat="46.53412" lon="2.84626">
        <ele>323.62</ele>
        <time>2014-10-11T09:50:32Z</time>
      </trkpt>
      <trkpt lat="46.53423" lon="2.84668">
        <ele>322.18</ele>
        <time>2014-10-11T09:50:55Z</time>
      </trkpt>
      <trkpt lat="46.53429" lon="2.84698">
        <ele>321.7</ele>
        <time>2014-10-11T09:51:09Z</time>
      </trkpt>
      <trkpt lat="46.53433" lon="2.84712">
        <ele>321.7</ele>
        <time>2014-10-11T09:51:16Z</time>
      </trkpt>
      <trkpt lat="46.53444" lon="2.84741">
        <ele>324.1</ele>
        <time>2014-10-11T09:51:35Z</time>
      </trkpt>
      <trkpt lat="46.53453" lon="2.84768">
        <ele>324.58</ele>
        <time>2014-10-11T09:51:50Z</time>
      </trkpt>
      <trkpt lat="46.53459" lon="2.84789">
        <ele>324.58</ele>
        <time>2014-10-11T09:52:05Z</time>
      </trkpt>
      <trkpt lat="46.53462" lon="2.84804">
        <ele>323.14</ele>
        <time>2014-10-11T09:52:17Z</time>
      </trkpt>
      <trkpt lat="46.53465" lon="2.8482">
        <ele>323.14</ele>
        <time>2014-10-11T09:52:30Z</time>
      </trkpt>
      <trkpt lat="46.53468" lon="2.84854">
        <ele>322.66</ele>
        <time>2014-10-11T09:52:47Z</time>
      </trkpt>
      <trkpt lat="46.53469" lon="2.84879">
        <ele>321.7</ele>
        <time>2014-10-11T09:53:03Z</time>
      </trkpt>
      <trkpt lat="46.53467" lon="2.84907">
        <ele>321.7</ele>
        <time>2014-10-11T09:53:18Z</time>
      </trkpt>
      <trkpt lat="46.53471" lon="2.8495">
        <ele>321.22</ele>
        <time>2014-10-11T09:53:38Z</time>
      </trkpt>
      <trkpt lat="46.53474" lon="2.84988">
        <ele>321.22</ele>
        <time>2014-10-11T09:53:56Z</time>
      </trkpt>
      <trkpt lat="46.53479" lon="2.85034">
        <ele>320.26</ele>
        <time>2014-10-11T09:54:18Z</time>
      </trkpt>
      <trkpt lat="46.53485" lon="2.85075">
        <ele>319.3</ele>
        <time>2014-10-11T09:54:38Z</time>
      </trkpt>
      <trkpt lat="46.53491" lon="2.85112">
        <ele>318.81</ele>
        <time>2014-10-11T09:54:56Z</time>
      </trkpt>
      <trkpt lat="46.53496" lon="2.85143">
        <ele>317.85</ele>
        <time>2014-10-11T09:55:13Z</time>
      </trkpt>
      <trkpt lat="46.53506" lon="2.85159">
        <ele>317.37</ele>
        <time>2014-10-11T09:55:25Z</time>
      </trkpt>
      <trkpt lat="46.53515" lon="2.85172">
        <ele>316.89</ele>
        <time>2014-10-11T09:55:39Z</time>
      </trkpt>
      <trkpt lat="46.53525" lon="2.8519">
        <ele>316.41</ele>
        <time>2014-10-11T09:56:01Z</time>
      </trkpt>
      <trkpt lat="46.53542" lon="2.8523">
        <ele>314.97</ele>
        <time>2014-10-11T09:56:23Z</time>
      </trkpt>
      <trkpt lat="46.53555" lon="2.85266">
        <ele>314.49</ele>
        <time>2014-10-11T09:56:42Z</time>
      </trkpt>
      <trkpt lat="46.53563" lon="2.85294">
        <ele>314.49</ele>
        <time>2014-10-11T09:56:57Z</time>
      </trkpt>
      <trkpt lat="46.53576" lon="2.85339">
        <ele>314.49</ele>
        <time>2014-10-11T09:57:19Z</time>
      </trkpt>
      <trkpt lat="46.53588" lon="2.85378">
        <ele>315.45</ele>
        <time>2014-10-11T09:57:39Z</time>
      </trkpt>
      <trkpt lat="46.53598" lon="2.85414">
        <ele>315.93</ele>
        <time>2014-10-11T09:57:57Z</time>
      </trkpt>
      <trkpt lat="46.53612" lon="2.85461">
        <ele>317.85</ele>
        <time>2014-10-11T09:58:21Z</time>
      </trkpt>
      <trkpt lat="46.53628" lon="2.85489">
        <ele>318.81</ele>
        <time>2014-10-11T09:58:38Z</time>
      </trkpt>
      <trkpt lat="46.53611" lon="2.85513">
        <ele>319.3</ele>
        <time>2014-10-11T09:59:03Z</time>
      </trkpt>
      <trkpt lat="46.53583" lon="2.85528">
        <ele>317.37</ele>
        <time>2014-10-11T09:59:29Z</time>
      </trkpt>
      <trkpt lat="46.53571" lon="2.85537">
        <ele>317.37</ele>
        <time>2014-10-11T09:59:42Z</time>
      </trkpt>
      <trkpt lat="46.53561" lon="2.85543">
        <ele>316.41</ele>
        <time>2014-10-11T10:00:09Z</time>
      </trkpt>
      <trkpt lat="46.5355" lon="2.85568">
        <ele>315.93</ele>
        <time>2014-10-11T10:00:27Z</time>
      </trkpt>
      <trkpt lat="46.53534" lon="2.85591">
        <ele>314.97</ele>
        <time>2014-10-11T10:00:44Z</time>
      </trkpt>
      <trkpt lat="46.5351" lon="2.85608">
        <ele>314.01</ele>
        <time>2014-10-11T10:01:03Z</time>
      </trkpt>
      <trkpt lat="46.53484" lon="2.85623">
        <ele>313.05</ele>
        <time>2014-10-11T10:01:25Z</time>
      </trkpt>
      <trkpt lat="46.53475" lon="2.85629">
        <ele>311.6</ele>
        <time>2014-10-11T10:01:47Z</time>
      </trkpt>
      <trkpt lat="46.53468" lon="2.85633">
        <ele>311.6</ele>
        <time>2014-10-11T10:04:14Z</time>
      </trkpt>
      <trkpt lat="46.53461" lon="2.85632">
        <ele>311.6</ele>
        <time>2014-10-11T10:05:31Z</time>
      </trkpt>
      <trkpt lat="46.53437" lon="2.85648">
        <ele>310.16</ele>
        <time>2014-10-11T10:06:22Z</time>
      </trkpt>
      <trkpt lat="46.53413" lon="2.85661">
        <ele>310.16</ele>
        <time>2014-10-11T10:06:43Z</time>
      </trkpt>
      <trkpt lat="46.53389" lon="2.85674">
        <ele>309.2</ele>
        <time>2014-10-11T10:07:02Z</time>
      </trkpt>
      <trkpt lat="46.53365" lon="2.85691">
        <ele>308.24</ele>
        <time>2014-10-11T10:07:22Z</time>
      </trkpt>
      <trkpt lat="46.53349" lon="2.85713">
        <ele>308.24</ele>
        <time>2014-10-11T10:07:40Z</time>
      </trkpt>
      <trkpt lat="46.53336" lon="2.85731">
        <ele>307.28</ele>
        <time>2014-10-11T10:07:55Z</time>
      </trkpt>
      <trkpt lat="46.53315" lon="2.8575">
        <ele>307.28</ele>
        <time>2014-10-11T10:08:14Z</time>
      </trkpt>
      <trkpt lat="46.53294" lon="2.85761">
        <ele>307.28</ele>
        <time>2014-10-11T10:08:31Z</time>
      </trkpt>
      <trkpt lat="46.5327" lon="2.85772">
        <ele>306.8</ele>
        <time>2014-10-11T10:08:51Z</time>
      </trkpt>
      <trkpt lat="46.53261" lon="2.85775">
        <ele>306.8</ele>
        <time>2014-10-11T10:09:03Z</time>
      </trkpt>
      <trkpt lat="46.53249" lon="2.85779">
        <ele>306.8</ele>
        <time>2014-10-11T10:09:44Z</time>
      </trkpt>
      <trkpt lat="46.53231" lon="2.85787">
        <ele>306.8</ele>
        <time>2014-10-11T10:09:59Z</time>
      </trkpt>
      <trkpt lat="46.53208" lon="2.85797">
        <ele>308.24</ele>
        <time>2014-10-11T10:10:17Z</time>
      </trkpt>
      <trkpt lat="46.53195" lon="2.858">
        <ele>308.72</ele>
        <time>2014-10-11T10:10:31Z</time>
      </trkpt>
      <trkpt lat="46.53192" lon="2.85814">
        <ele>308.72</ele>
        <time>2014-10-11T10:11:01Z</time>
      </trkpt>
      <trkpt lat="46.53186" lon="2.85839">
        <ele>308.72</ele>
        <time>2014-10-11T10:11:24Z</time>
      </trkpt>
      <trkpt lat="46.53188" lon="2.85852">
        <ele>308.72</ele>
        <time>2014-10-11T10:11:39Z</time>
      </trkpt>
      <trkpt lat="46.53184" lon="2.85873">
        <ele>309.68</ele>
        <time>2014-10-11T10:11:54Z</time>
      </trkpt>
      <trkpt lat="46.53177" lon="2.85914">
        <ele>311.12</ele>
        <time>2014-10-11T10:12:21Z</time>
      </trkpt>
      <trkpt lat="46.53171" lon="2.85954">
        <ele>311.12</ele>
        <time>2014-10-11T10:12:40Z</time>
      </trkpt>
      <trkpt lat="46.53166" lon="2.85992">
        <ele>312.09</ele>
        <time>2014-10-11T10:12:59Z</time>
      </trkpt>
      <trkpt lat="46.53161" lon="2.86026">
        <ele>313.05</ele>
        <time>2014-10-11T10:13:17Z</time>
      </trkpt>
      <trkpt lat="46.53158" lon="2.86046">
        <ele>313.05</ele>
        <time>2014-10-11T10:13:30Z</time>
      </trkpt>
      <trkpt lat="46.53152" lon="2.86073">
        <ele>313.05</ele>
        <time>2014-10-11T10:13:44Z</time>
      </trkpt>
      <trkpt lat="46.53149" lon="2.86106">
        <ele>313.05</ele>
        <time>2014-10-11T10:14:01Z</time>
      </trkpt>
      <trkpt lat="46.53146" lon="2.86132">
        <ele>313.53</ele>
        <time>2014-10-11T10:14:17Z</time>
      </trkpt>
      <trkpt lat="46.53142" lon="2.86168">
        <ele>314.01</ele>
        <time>2014-10-11T10:14:35Z</time>
      </trkpt>
      <trkpt lat="46.53136" lon="2.86204">
        <ele>314.49</ele>
        <time>2014-10-11T10:14:53Z</time>
      </trkpt>
      <trkpt lat="46.53133" lon="2.86222">
        <ele>314.49</ele>
        <time>2014-10-11T10:15:09Z</time>
      </trkpt>
      <trkpt lat="46.53118" lon="2.86264">
        <ele>314.97</ele>
        <time>2014-10-11T10:15:41Z</time>
      </trkpt>
      <trkpt lat="46.53106" lon="2.863">
        <ele>313.53</ele>
        <time>2014-10-11T10:16:02Z</time>
      </trkpt>
      <trkpt lat="46.53093" lon="2.86335">
        <ele>312.09</ele>
        <time>2014-10-11T10:16:22Z</time>
      </trkpt>
      <trkpt lat="46.53081" lon="2.86371">
        <ele>311.12</ele>
        <time>2014-10-11T10:16:42Z</time>
      </trkpt>
      <trkpt lat="46.53071" lon="2.864">
        <ele>310.64</ele>
        <time>2014-10-11T10:16:58Z</time>
      </trkpt>
      <trkpt lat="46.5306" lon="2.86433">
        <ele>310.16</ele>
        <time>2014-10-11T10:17:16Z</time>
      </trkpt>
      <trkpt lat="46.53051" lon="2.8647">
        <ele>309.68</ele>
        <time>2014-10-11T10:17:36Z</time>
      </trkpt>
      <trkpt lat="46.53043" lon="2.86505">
        <ele>308.72</ele>
        <time>2014-10-11T10:17:56Z</time>
      </trkpt>
      <trkpt lat="46.53039" lon="2.86529">
        <ele>308.24</ele>
        <time>2014-10-11T10:18:09Z</time>
      </trkpt>
      <trkpt lat="46.53031" lon="2.86565">
        <ele>307.76</ele>
        <time>2014-10-11T10:18:28Z</time>
      </trkpt>
      <trkpt lat="46.53025" lon="2.86599">
        <ele>307.28</ele>
        <time>2014-10-11T10:18:45Z</time>
      </trkpt>
      <trkpt lat="46.53017" lon="2.86637">
        <ele>306.32</ele>
        <time>2014-10-11T10:19:05Z</time>
      </trkpt>
      <trkpt lat="46.53005" lon="2.86673">
        <ele>304.88</ele>
        <time>2014-10-11T10:19:25Z</time>
      </trkpt>
      <trkpt lat="46.52998" lon="2.86701">
        <ele>304.39</ele>
        <time>2014-10-11T10:19:40Z</time>
      </trkpt>
      <trkpt lat="46.52983" lon="2.86734">
        <ele>303.43</ele>
        <time>2014-10-11T10:20:00Z</time>
      </trkpt>
      <trkpt lat="46.52971" lon="2.86764">
        <ele>302.95</ele>
        <time>2014-10-11T10:20:17Z</time>
      </trkpt>
      <trkpt lat="46.52961" lon="2.86785">
        <ele>302.47</ele>
        <time>2014-10-11T10:20:32Z</time>
      </trkpt>
      <trkpt lat="46.52948" lon="2.86816">
        <ele>301.51</ele>
        <time>2014-10-11T10:20:49Z</time>
      </trkpt>
      <trkpt lat="46.52935" lon="2.86854">
        <ele>300.55</ele>
        <time>2014-10-11T10:21:10Z</time>
      </trkpt>
      <trkpt lat="46.52923" lon="2.86889">
        <ele>299.59</ele>
        <time>2014-10-11T10:21:29Z</time>
      </trkpt>
      <trkpt lat="46.52912" lon="2.86925">
        <ele>299.11</ele>
        <time>2014-10-11T10:21:49Z</time>
      </trkpt>
      <trkpt lat="46.52903" lon="2.86955">
        <ele>298.15</ele>
        <time>2014-10-11T10:22:06Z</time>
      </trkpt>
      <trkpt lat="46.52894" lon="2.8698">
        <ele>297.18</ele>
        <time>2014-10-11T10:22:19Z</time>
      </trkpt>
      <trkpt lat="46.5288" lon="2.87018">
        <ele>295.74</ele>
        <time>2014-10-11T10:22:45Z</time>
      </trkpt>
      <trkpt lat="46.52873" lon="2.87028">
        <ele>295.26</ele>
        <time>2014-10-11T10:24:34Z</time>
      </trkpt>
      <trkpt lat="46.52857" lon="2.8705">
        <ele>295.26</ele>
        <time>2014-10-11T10:24:53Z</time>
      </trkpt>
      <trkpt lat="46.52832" lon="2.87072">
        <ele>294.78</ele>
        <time>2014-10-11T10:25:14Z</time>
      </trkpt>
      <trkpt lat="46.5281" lon="2.87093">
        <ele>293.82</ele>
        <time>2014-10-11T10:25:35Z</time>
      </trkpt>
      <trkpt lat="46.52798" lon="2.87121">
        <ele>292.38</ele>
        <time>2014-10-11T10:25:54Z</time>
      </trkpt>
      <trkpt lat="46.52799" lon="2.87156">
        <ele>291.42</ele>
        <time>2014-10-11T10:26:13Z</time>
      </trkpt>
      <trkpt lat="46.52795" lon="2.87206">
        <ele>290.94</ele>
        <time>2014-10-11T10:26:39Z</time>
      </trkpt>
      <trkpt lat="46.52792" lon="2.87242">
        <ele>290.46</ele>
        <time>2014-10-11T10:26:58Z</time>
      </trkpt>
      <trkpt lat="46.52794" lon="2.87275">
        <ele>290.46</ele>
        <time>2014-10-11T10:27:17Z</time>
      </trkpt>
      <trkpt lat="46.52795" lon="2.8731">
        <ele>291.42</ele>
        <time>2014-10-11T10:27:34Z</time>
      </trkpt>
      <trkpt lat="46.52794" lon="2.87348">
        <ele>292.38</ele>
        <time>2014-10-11T10:27:52Z</time>
      </trkpt>
      <trkpt lat="46.52789" lon="2.87381">
        <ele>292.86</ele>
        <time>2014-10-11T10:28:10Z</time>
      </trkpt>
      <trkpt lat="46.52784" lon="2.87416">
        <ele>294.78</ele>
        <time>2014-10-11T10:28:29Z</time>
      </trkpt>
      <trkpt lat="46.52777" lon="2.87452">
        <ele>296.22</ele>
        <time>2014-10-11T10:28:48Z</time>
      </trkpt>
      <trkpt lat="46.52771" lon="2.87485">
        <ele>297.18</ele>
        <time>2014-10-11T10:29:06Z</time>
      </trkpt>
      <trkpt lat="46.52786" lon="2.87502">
        <ele>298.63</ele>
        <time>2014-10-11T10:29:21Z</time>
      </trkpt>
      <trkpt lat="46.52804" lon="2.87514">
        <ele>299.11</ele>
        <time>2014-10-11T10:29:38Z</time>
      </trkpt>
      <trkpt lat="46.52811" lon="2.87545">
        <ele>300.07</ele>
        <time>2014-10-11T10:29:56Z</time>
      </trkpt>
      <trkpt lat="46.52818" lon="2.8758">
        <ele>301.03</ele>
        <time>2014-10-11T10:30:13Z</time>
      </trkpt>
      <trkpt lat="46.52823" lon="2.8761">
        <ele>301.99</ele>
        <time>2014-10-11T10:30:28Z</time>
      </trkpt>
      <trkpt lat="46.52833" lon="2.87651">
        <ele>302.95</ele>
        <time>2014-10-11T10:30:49Z</time>
      </trkpt>
      <trkpt lat="46.52841" lon="2.87691">
        <ele>304.39</ele>
        <time>2014-10-11T10:31:11Z</time>
      </trkpt>
      <trkpt lat="46.52847" lon="2.87728">
        <ele>305.36</ele>
        <time>2014-10-11T10:31:30Z</time>
      </trkpt>
      <trkpt lat="46.52853" lon="2.87764">
        <ele>307.28</ele>
        <time>2014-10-11T10:31:50Z</time>
      </trkpt>
      <trkpt lat="46.52853" lon="2.87784">
        <ele>308.72</ele>
        <time>2014-10-11T10:32:07Z</time>
      </trkpt>
      <trkpt lat="46.52823" lon="2.87795">
        <ele>308.72</ele>
        <time>2014-10-11T10:33:00Z</time>
      </trkpt>
      <trkpt lat="46.52804" lon="2.87802">
        <ele>308.72</ele>
        <time>2014-10-11T10:33:17Z</time>
      </trkpt>
      <trkpt lat="46.52794" lon="2.87808">
        <ele>309.2</ele>
        <time>2014-10-11T10:33:25Z</time>
      </trkpt>
      <trkpt lat="46.5277" lon="2.8783">
        <ele>309.68</ele>
        <time>2014-10-11T10:33:46Z</time>
      </trkpt>
      <trkpt lat="46.52749" lon="2.87844">
        <ele>309.68</ele>
        <time>2014-10-11T10:34:03Z</time>
      </trkpt>
      <trkpt lat="46.5272" lon="2.87867">
        <ele>309.68</ele>
        <time>2014-10-11T10:34:26Z</time>
      </trkpt>
      <trkpt lat="46.52694" lon="2.87889">
        <ele>309.68</ele>
        <time>2014-10-11T10:34:46Z</time>
      </trkpt>
      <trkpt lat="46.52685" lon="2.87901">
        <ele>309.68</ele>
        <time>2014-10-11T10:34:58Z</time>
      </trkpt>
      <trkpt lat="46.52662" lon="2.87881">
        <ele>309.68</ele>
        <time>2014-10-11T10:35:20Z</time>
      </trkpt>
      <trkpt lat="46.52652" lon="2.87872">
        <ele>309.68</ele>
        <time>2014-10-11T10:35:37Z</time>
      </trkpt>
      <trkpt lat="46.52638" lon="2.87891">
        <ele>310.16</ele>
        <time>2014-10-11T10:37:03Z</time>
      </trkpt>
      <trkpt lat="46.52619" lon="2.8792">
        <ele>310.16</ele>
        <time>2014-10-11T10:37:22Z</time>
      </trkpt>
      <trkpt lat="46.52604" lon="2.8794">
        <ele>310.16</ele>
        <time>2014-10-11T10:37:38Z</time>
      </trkpt>
      <trkpt lat="46.52577" lon="2.87966">
        <ele>310.16</ele>
        <time>2014-10-11T10:38:00Z</time>
      </trkpt>
      <trkpt lat="46.52562" lon="2.87983">
        <ele>310.16</ele>
        <time>2014-10-11T10:38:17Z</time>
      </trkpt>
      <trkpt lat="46.52546" lon="2.88002">
        <ele>309.68</ele>
        <time>2014-10-11T10:38:34Z</time>
      </trkpt>
      <trkpt lat="46.52531" lon="2.88023">
        <ele>308.72</ele>
        <time>2014-10-11T10:38:50Z</time>
      </trkpt>
      <trkpt lat="46.52516" lon="2.88045">
        <ele>308.72</ele>
        <time>2014-10-11T10:39:05Z</time>
      </trkpt>
      <trkpt lat="46.52498" lon="2.88068">
        <ele>308.72</ele>
        <time>2014-10-11T10:39:23Z</time>
      </trkpt>
      <trkpt lat="46.52479" lon="2.88088">
        <ele>308.24</ele>
        <time>2014-10-11T10:39:39Z</time>
      </trkpt>
      <trkpt lat="46.52467" lon="2.88112">
        <ele>308.24</ele>
        <time>2014-10-11T10:39:55Z</time>
      </trkpt>
      <trkpt lat="46.52457" lon="2.88139">
        <ele>308.24</ele>
        <time>2014-10-11T10:40:12Z</time>
      </trkpt>
      <trkpt lat="46.52451" lon="2.88151">
        <ele>308.24</ele>
        <time>2014-10-11T10:40:56Z</time>
      </trkpt>
      <trkpt lat="46.52446" lon="2.88175">
        <ele>308.24</ele>
        <time>2014-10-11T10:41:13Z</time>
      </trkpt>
      <trkpt lat="46.5244" lon="2.88203">
        <ele>308.24</ele>
        <time>2014-10-11T10:41:30Z</time>
      </trkpt>
      <trkpt lat="46.52435" lon="2.88218">
        <ele>307.76</ele>
        <time>2014-10-11T10:42:25Z</time>
      </trkpt>
      <trkpt lat="46.52429" lon="2.88231">
        <ele>307.76</ele>
        <time>2014-10-11T10:42:44Z</time>
      </trkpt>
      <trkpt lat="46.52426" lon="2.88253">
        <ele>307.28</ele>
        <time>2014-10-11T10:42:59Z</time>
      </trkpt>
      <trkpt lat="46.52424" lon="2.88295">
        <ele>307.28</ele>
        <time>2014-10-11T10:43:19Z</time>
      </trkpt>
      <trkpt lat="46.52421" lon="2.88334">
        <ele>306.32</ele>
        <time>2014-10-11T10:43:39Z</time>
      </trkpt>
      <trkpt lat="46.52414" lon="2.88375">
        <ele>305.36</ele>
        <time>2014-10-11T10:44:00Z</time>
      </trkpt>
      <trkpt lat="46.52408" lon="2.8841">
        <ele>303.91</ele>
        <time>2014-10-11T10:44:18Z</time>
      </trkpt>
      <trkpt lat="46.52396" lon="2.88442">
        <ele>302.95</ele>
        <time>2014-10-11T10:44:37Z</time>
      </trkpt>
      <trkpt lat="46.52388" lon="2.88471">
        <ele>301.51</ele>
        <time>2014-10-11T10:44:53Z</time>
      </trkpt>
      <trkpt lat="46.52377" lon="2.88505">
        <ele>300.07</ele>
        <time>2014-10-11T10:45:11Z</time>
      </trkpt>
      <trkpt lat="46.52359" lon="2.88536">
        <ele>298.63</ele>
        <time>2014-10-11T10:45:31Z</time>
      </trkpt>
      <trkpt lat="46.52331" lon="2.88564">
        <ele>297.67</ele>
        <time>2014-10-11T10:45:55Z</time>
      </trkpt>
      <trkpt lat="46.52303" lon="2.8859">
        <ele>295.74</ele>
        <time>2014-10-11T10:46:19Z</time>
      </trkpt>
      <trkpt lat="46.52278" lon="2.88614">
        <ele>294.3</ele>
        <time>2014-10-11T10:46:41Z</time>
      </trkpt>
      <trkpt lat="46.52246" lon="2.88638">
        <ele>292.86</ele>
        <time>2014-10-11T10:47:06Z</time>
      </trkpt>
      <trkpt lat="46.52217" lon="2.88656">
        <ele>291.42</ele>
        <time>2014-10-11T10:47:30Z</time>
      </trkpt>
      <trkpt lat="46.52196" lon="2.88672">
        <ele>290.94</ele>
        <time>2014-10-11T10:47:48Z</time>
      </trkpt>
      <trkpt lat="46.52186" lon="2.8868">
        <ele>290.46</ele>
        <time>2014-10-11T10:47:57Z</time>
      </trkpt>
      <trkpt lat="46.52192" lon="2.88636">
        <ele>291.9</ele>
        <time>2014-10-11T10:48:22Z</time>
      </trkpt>
      <trkpt lat="46.52202" lon="2.88602">
        <ele>292.38</ele>
        <time>2014-10-11T10:48:41Z</time>
      </trkpt>
      <trkpt lat="46.52214" lon="2.88566">
        <ele>293.34</ele>
        <time>2014-10-11T10:49:01Z</time>
      </trkpt>
      <trkpt lat="46.52227" lon="2.88521">
        <ele>293.82</ele>
        <time>2014-10-11T10:49:36Z</time>
      </trkpt>
      <trkpt lat="46.52235" lon="2.88466">
        <ele>294.3</ele>
        <time>2014-10-11T10:50:04Z</time>
      </trkpt>
      <trkpt lat="46.5223" lon="2.88427">
        <ele>295.26</ele>
        <time>2014-10-11T10:50:24Z</time>
      </trkpt>
      <trkpt lat="46.52222" lon="2.88397">
        <ele>295.26</ele>
        <time>2014-10-11T10:50:41Z</time>
      </trkpt>
      <trkpt lat="46.52217" lon="2.8838">
        <ele>295.26</ele>
        <time>2014-10-11T10:51:00Z</time>
      </trkpt>
      <trkpt lat="46.52205" lon="2.88365">
        <ele>295.26</ele>
        <time>2014-10-11T10:51:14Z</time>
      </trkpt>
      <trkpt lat="46.52195" lon="2.88351">
        <ele>295.26</ele>
        <time>2014-10-11T10:51:26Z</time>
      </trkpt>
      <trkpt lat="46.52186" lon="2.88339">
        <ele>295.74</ele>
        <time>2014-10-11T10:51:38Z</time>
      </trkpt>
      <trkpt lat="46.52167" lon="2.88316">
        <ele>296.7</ele>
        <time>2014-10-11T10:51:54Z</time>
      </trkpt>
      <trkpt lat="46.52148" lon="2.88293">
        <ele>297.67</ele>
        <time>2014-10-11T10:52:14Z</time>
      </trkpt>
      <trkpt lat="46.52124" lon="2.88262">
        <ele>298.63</ele>
        <time>2014-10-11T10:52:46Z</time>
      </trkpt>
      <trkpt lat="46.52105" lon="2.88237">
        <ele>298.63</ele>
        <time>2014-10-11T10:53:04Z</time>
      </trkpt>
      <trkpt lat="46.52088" lon="2.88215">
        <ele>298.63</ele>
        <time>2014-10-11T10:53:21Z</time>
      </trkpt>
      <trkpt lat="46.52076" lon="2.882">
        <ele>298.63</ele>
        <time>2014-10-11T10:53:36Z</time>
      </trkpt>
      <trkpt lat="46.52064" lon="2.88185">
        <ele>297.67</ele>
        <time>2014-10-11T10:53:51Z</time>
      </trkpt>
      <trkpt lat="46.52049" lon="2.88167">
        <ele>296.7</ele>
        <time>2014-10-11T10:54:08Z</time>
      </trkpt>
      <trkpt lat="46.52037" lon="2.88152">
        <ele>296.22</ele>
        <time>2014-10-11T10:54:20Z</time>
      </trkpt>
      <trkpt lat="46.52021" lon="2.88126">
        <ele>295.26</ele>
        <time>2014-10-11T10:54:39Z</time>
      </trkpt>
      <trkpt lat="46.52009" lon="2.88135">
        <ele>294.78</ele>
        <time>2014-10-11T10:55:16Z</time>
      </trkpt>
      <trkpt lat="46.51995" lon="2.88144">
        <ele>294.78</ele>
        <time>2014-10-11T10:55:33Z</time>
      </trkpt>
      <trkpt lat="46.51984" lon="2.88152">
        <ele>294.78</ele>
        <time>2014-10-11T10:55:46Z</time>
      </trkpt>
      <trkpt lat="46.5197" lon="2.88159">
        <ele>294.78</ele>
        <time>2014-10-11T10:55:59Z</time>
      </trkpt>
      <trkpt lat="46.51948" lon="2.88173">
        <ele>294.78</ele>
        <time>2014-10-11T10:56:16Z</time>
      </trkpt>
      <trkpt lat="46.51928" lon="2.88185">
        <ele>294.78</ele>
        <time>2014-10-11T10:56:34Z</time>
      </trkpt>
      <trkpt lat="46.51908" lon="2.88196">
        <ele>294.3</ele>
        <time>2014-10-11T10:56:50Z</time>
      </trkpt>
      <trkpt lat="46.51886" lon="2.88208">
        <ele>293.82</ele>
        <time>2014-10-11T10:57:08Z</time>
      </trkpt>
      <trkpt lat="46.51876" lon="2.88213">
        <ele>293.82</ele>
        <time>2014-10-11T10:57:14Z</time>
      </trkpt>
      <trkpt lat="46.51859" lon="2.88224">
        <ele>292.86</ele>
        <time>2014-10-11T10:57:32Z</time>
      </trkpt>
      <trkpt lat="46.5185" lon="2.88223">
        <ele>291.9</ele>
        <time>2014-10-11T10:58:34Z</time>
      </trkpt>
      <trkpt lat="46.51828" lon="2.88235">
        <ele>292.86</ele>
        <time>2014-10-11T11:05:51Z</time>
      </trkpt>
      <trkpt lat="46.51809" lon="2.8825">
        <ele>291.9</ele>
        <time>2014-10-11T11:06:10Z</time>
      </trkpt>
      <trkpt lat="46.51789" lon="2.88262">
        <ele>290.46</ele>
        <time>2014-10-11T11:06:28Z</time>
      </trkpt>
      <trkpt lat="46.51768" lon="2.88273">
        <ele>289.97</ele>
        <time>2014-10-11T11:06:46Z</time>
      </trkpt>
      <trkpt lat="46.51751" lon="2.88284">
        <ele>289.01</ele>
        <time>2014-10-11T11:07:01Z</time>
      </trkpt>
      <trkpt lat="46.5173" lon="2.88288">
        <ele>288.05</ele>
        <time>2014-10-11T11:07:19Z</time>
      </trkpt>
      <trkpt lat="46.51707" lon="2.88283">
        <ele>287.09</ele>
        <time>2014-10-11T11:07:36Z</time>
      </trkpt>
      <trkpt lat="46.51691" lon="2.8828">
        <ele>286.13</ele>
        <time>2014-10-11T11:07:49Z</time>
      </trkpt>
      <trkpt lat="46.51668" lon="2.8827">
        <ele>284.69</ele>
        <time>2014-10-11T11:08:06Z</time>
      </trkpt>
      <trkpt lat="46.51641" lon="2.88265">
        <ele>282.77</ele>
        <time>2014-10-11T11:08:26Z</time>
      </trkpt>
      <trkpt lat="46.51621" lon="2.88263">
        <ele>281.32</ele>
        <time>2014-10-11T11:08:42Z</time>
      </trkpt>
      <trkpt lat="46.51608" lon="2.88264">
        <ele>280.84</ele>
        <time>2014-10-11T11:08:51Z</time>
      </trkpt>
      <trkpt lat="46.51577" lon="2.88262">
        <ele>278.92</ele>
        <time>2014-10-11T11:09:15Z</time>
      </trkpt>
      <trkpt lat="46.5155" lon="2.88264">
        <ele>277.48</ele>
        <time>2014-10-11T11:09:34Z</time>
      </trkpt>
      <trkpt lat="46.51537" lon="2.88266">
        <ele>276.52</ele>
        <time>2014-10-11T11:09:46Z</time>
      </trkpt>
      <trkpt lat="46.51507" lon="2.88261">
        <ele>273.63</ele>
        <time>2014-10-11T11:10:08Z</time>
      </trkpt>
      <trkpt lat="46.5149" lon="2.88257">
        <ele>273.15</ele>
        <time>2014-10-11T11:10:20Z</time>
      </trkpt>
      <trkpt lat="46.51467" lon="2.88256">
        <ele>271.71</ele>
        <time>2014-10-11T11:10:38Z</time>
      </trkpt>
      <trkpt lat="46.51452" lon="2.88255">
        <ele>271.23</ele>
        <time>2014-10-11T11:10:51Z</time>
      </trkpt>
      <trkpt lat="46.51435" lon="2.88256">
        <ele>270.27</ele>
        <time>2014-10-11T11:11:05Z</time>
      </trkpt>
      <trkpt lat="46.51417" lon="2.88255">
        <ele>269.31</ele>
        <time>2014-10-11T11:11:19Z</time>
      </trkpt>
      <trkpt lat="46.51393" lon="2.8825">
        <ele>267.86</ele>
        <time>2014-10-11T11:11:37Z</time>
      </trkpt>
      <trkpt lat="46.51376" lon="2.88247">
        <ele>266.42</ele>
        <time>2014-10-11T11:11:51Z</time>
      </trkpt>
      <trkpt lat="46.51359" lon="2.88242">
        <ele>264.98</ele>
        <time>2014-10-11T11:12:04Z</time>
      </trkpt>
      <trkpt lat="46.51338" lon="2.88235">
        <ele>263.54</ele>
        <time>2014-10-11T11:12:20Z</time>
      </trkpt>
      <trkpt lat="46.51319" lon="2.88228">
        <ele>261.62</ele>
        <time>2014-10-11T11:12:35Z</time>
      </trkpt>
      <trkpt lat="46.51301" lon="2.88222">
        <ele>261.14</ele>
        <time>2014-10-11T11:12:49Z</time>
      </trkpt>
      <trkpt lat="46.51274" lon="2.88216">
        <ele>259.21</ele>
        <time>2014-10-11T11:13:11Z</time>
      </trkpt>
      <trkpt lat="46.51256" lon="2.8821">
        <ele>258.73</ele>
        <time>2014-10-11T11:13:25Z</time>
      </trkpt>
      <trkpt lat="46.51246" lon="2.88207">
        <ele>258.25</ele>
        <time>2014-10-11T11:13:33Z</time>
      </trkpt>
      <trkpt lat="46.51225" lon="2.88201">
        <ele>257.77</ele>
        <time>2014-10-11T11:13:49Z</time>
      </trkpt>
      <trkpt lat="46.51211" lon="2.88189">
        <ele>256.33</ele>
        <time>2014-10-11T11:14:02Z</time>
      </trkpt>
      <trkpt lat="46.51194" lon="2.88177">
        <ele>255.37</ele>
        <time>2014-10-11T11:14:17Z</time>
      </trkpt>
      <trkpt lat="46.51175" lon="2.88169">
        <ele>254.41</ele>
        <time>2014-10-11T11:14:31Z</time>
      </trkpt>
      <trkpt lat="46.51151" lon="2.88159">
        <ele>253.93</ele>
        <time>2014-10-11T11:14:47Z</time>
      </trkpt>
      <trkpt lat="46.51134" lon="2.88148">
        <ele>253.93</ele>
        <time>2014-10-11T11:15:01Z</time>
      </trkpt>
      <trkpt lat="46.51126" lon="2.88131">
        <ele>253.93</ele>
        <time>2014-10-11T11:15:18Z</time>
      </trkpt>
      <trkpt lat="46.51117" lon="2.8811">
        <ele>253.93</ele>
        <time>2014-10-11T11:15:33Z</time>
      </trkpt>
      <trkpt lat="46.51101" lon="2.8808">
        <ele>255.85</ele>
        <time>2014-10-11T11:15:51Z</time>
      </trkpt>
      <trkpt lat="46.51092" lon="2.88057">
        <ele>256.33</ele>
        <time>2014-10-11T11:16:04Z</time>
      </trkpt>
      <trkpt lat="46.51077" lon="2.88056">
        <ele>256.81</ele>
        <time>2014-10-11T11:16:20Z</time>
      </trkpt>
      <trkpt lat="46.51066" lon="2.88065">
        <ele>256.81</ele>
        <time>2014-10-11T11:16:31Z</time>
      </trkpt>
      <trkpt lat="46.51045" lon="2.88087">
        <ele>254.89</ele>
        <time>2014-10-11T11:16:51Z</time>
      </trkpt>
      <trkpt lat="46.51026" lon="2.88107">
        <ele>253.44</ele>
        <time>2014-10-11T11:17:08Z</time>
      </trkpt>
      <trkpt lat="46.51009" lon="2.88123">
        <ele>252.96</ele>
        <time>2014-10-11T11:17:24Z</time>
      </trkpt>
      <trkpt lat="46.50993" lon="2.88144">
        <ele>252</ele>
        <time>2014-10-11T11:17:40Z</time>
      </trkpt>
      <trkpt lat="46.50977" lon="2.88161">
        <ele>251.52</ele>
        <time>2014-10-11T11:17:55Z</time>
      </trkpt>
      <trkpt lat="46.50967" lon="2.88172">
        <ele>250.56</ele>
        <time>2014-10-11T11:18:05Z</time>
      </trkpt>
      <trkpt lat="46.50951" lon="2.88186">
        <ele>250.08</ele>
        <time>2014-10-11T11:18:19Z</time>
      </trkpt>
      <trkpt lat="46.50932" lon="2.88202">
        <ele>249.12</ele>
        <time>2014-10-11T11:18:49Z</time>
      </trkpt>
      <trkpt lat="46.50923" lon="2.88201">
        <ele>248.16</ele>
        <time>2014-10-11T11:25:14Z</time>
      </trkpt>
      <trkpt lat="46.50918" lon="2.88177">
        <ele>248.16</ele>
        <time>2014-10-11T11:25:30Z</time>
      </trkpt>
      <trkpt lat="46.50913" lon="2.88164">
        <ele>249.6</ele>
        <time>2014-10-11T11:25:40Z</time>
      </trkpt>
      <trkpt lat="46.50905" lon="2.88145">
        <ele>249.12</ele>
        <time>2014-10-11T11:25:54Z</time>
      </trkpt>
      <trkpt lat="46.50892" lon="2.88114">
        <ele>249.12</ele>
        <time>2014-10-11T11:26:13Z</time>
      </trkpt>
      <trkpt lat="46.50882" lon="2.88087">
        <ele>248.16</ele>
        <time>2014-10-11T11:26:29Z</time>
      </trkpt>
      <trkpt lat="46.50873" lon="2.88061">
        <ele>248.16</ele>
        <time>2014-10-11T11:26:45Z</time>
      </trkpt>
      <trkpt lat="46.50864" lon="2.88038">
        <ele>248.16</ele>
        <time>2014-10-11T11:26:59Z</time>
      </trkpt>
      <trkpt lat="46.50853" lon="2.88006">
        <ele>247.68</ele>
        <time>2014-10-11T11:27:16Z</time>
      </trkpt>
      <trkpt lat="46.50844" lon="2.87981">
        <ele>247.68</ele>
        <time>2014-10-11T11:27:30Z</time>
      </trkpt>
      <trkpt lat="46.50831" lon="2.87944">
        <ele>247.2</ele>
        <time>2014-10-11T11:27:51Z</time>
      </trkpt>
      <trkpt lat="46.50816" lon="2.87904">
        <ele>246.72</ele>
        <time>2014-10-11T11:28:39Z</time>
      </trkpt>
      <trkpt lat="46.50807" lon="2.87877">
        <ele>247.2</ele>
        <time>2014-10-11T11:28:58Z</time>
      </trkpt>
      <trkpt lat="46.50801" lon="2.87864">
        <ele>247.2</ele>
        <time>2014-10-11T11:29:11Z</time>
      </trkpt>
      <trkpt lat="46.50791" lon="2.87841">
        <ele>247.2</ele>
        <time>2014-10-11T11:29:26Z</time>
      </trkpt>
      <trkpt lat="46.5078" lon="2.87826">
        <ele>247.2</ele>
        <time>2014-10-11T11:29:40Z</time>
      </trkpt>
      <trkpt lat="46.50776" lon="2.87822">
        <ele>247.2</ele>
        <time>2014-10-11T11:34:24Z</time>
      </trkpt>
      <trkpt lat="46.50795" lon="2.87804">
        <ele>249.12</ele>
        <time>2014-10-11T11:34:49Z</time>
      </trkpt>
      <trkpt lat="46.50811" lon="2.87789">
        <ele>250.56</ele>
        <time>2014-10-11T11:35:03Z</time>
      </trkpt>
      <trkpt lat="46.50819" lon="2.87782">
        <ele>251.04</ele>
        <time>2014-10-11T11:35:11Z</time>
      </trkpt>
      <trkpt lat="46.50825" lon="2.8775">
        <ele>252.96</ele>
        <time>2014-10-11T11:35:30Z</time>
      </trkpt>
      <trkpt lat="46.50818" lon="2.87717">
        <ele>253.93</ele>
        <time>2014-10-11T11:35:47Z</time>
      </trkpt>
      <trkpt lat="46.50812" lon="2.8769">
        <ele>254.41</ele>
        <time>2014-10-11T11:36:04Z</time>
      </trkpt>
      <trkpt lat="46.50808" lon="2.8766">
        <ele>254.41</ele>
        <time>2014-10-11T11:36:21Z</time>
      </trkpt>
      <trkpt lat="46.50801" lon="2.87627">
        <ele>254.89</ele>
        <time>2014-10-11T11:36:41Z</time>
      </trkpt>
      <trkpt lat="46.50792" lon="2.87597">
        <ele>253.44</ele>
        <time>2014-10-11T11:37:01Z</time>
      </trkpt>
      <trkpt lat="46.50779" lon="2.87567">
        <ele>252.96</ele>
        <time>2014-10-11T11:37:34Z</time>
      </trkpt>
      <trkpt lat="46.50768" lon="2.87544">
        <ele>252.96</ele>
        <time>2014-10-11T11:37:48Z</time>
      </trkpt>
      <trkpt lat="46.50756" lon="2.87518">
        <ele>252</ele>
        <time>2014-10-11T11:38:04Z</time>
      </trkpt>
      <trkpt lat="46.5074" lon="2.87486">
        <ele>252</ele>
        <time>2014-10-11T11:38:24Z</time>
      </trkpt>
      <trkpt lat="46.5074" lon="2.87488">
        <ele>253.44</ele>
        <time>2014-10-11T11:39:13Z</time>
      </trkpt>
      <trkpt lat="46.50733" lon="2.87471">
        <ele>253.93</ele>
        <time>2014-10-11T11:39:47Z</time>
      </trkpt>
      <trkpt lat="46.50726" lon="2.87458">
        <ele>254.89</ele>
        <time>2014-10-11T11:39:58Z</time>
      </trkpt>
      <trkpt lat="46.50712" lon="2.87426">
        <ele>254.89</ele>
        <time>2014-10-11T11:40:17Z</time>
      </trkpt>
      <trkpt lat="46.50702" lon="2.87389">
        <ele>253.44</ele>
        <time>2014-10-11T11:40:37Z</time>
      </trkpt>
      <trkpt lat="46.50698" lon="2.87341">
        <ele>251.52</ele>
        <time>2014-10-11T11:41:03Z</time>
      </trkpt>
      <trkpt lat="46.50698" lon="2.87307">
        <ele>251.52</ele>
        <time>2014-10-11T11:41:20Z</time>
      </trkpt>
      <trkpt lat="46.50695" lon="2.87268">
        <ele>252.96</ele>
        <time>2014-10-11T11:41:40Z</time>
      </trkpt>
      <trkpt lat="46.50694" lon="2.87229">
        <ele>254.89</ele>
        <time>2014-10-11T11:42:00Z</time>
      </trkpt>
      <trkpt lat="46.50694" lon="2.87183">
        <ele>255.85</ele>
        <time>2014-10-11T11:42:22Z</time>
      </trkpt>
      <trkpt lat="46.50694" lon="2.87143">
        <ele>256.33</ele>
        <time>2014-10-11T11:42:43Z</time>
      </trkpt>
      <trkpt lat="46.50686" lon="2.87107">
        <ele>256.33</ele>
        <time>2014-10-11T11:43:02Z</time>
      </trkpt>
      <trkpt lat="46.50679" lon="2.87062">
        <ele>256.81</ele>
        <time>2014-10-11T11:43:24Z</time>
      </trkpt>
      <trkpt lat="46.50669" lon="2.87021">
        <ele>256.81</ele>
        <time>2014-10-11T11:43:45Z</time>
      </trkpt>
      <trkpt lat="46.50664" lon="2.86989">
        <ele>257.29</ele>
        <time>2014-10-11T11:44:02Z</time>
      </trkpt>
      <trkpt lat="46.50663" lon="2.86944">
        <ele>257.29</ele>
        <time>2014-10-11T11:44:23Z</time>
      </trkpt>
      <trkpt lat="46.5066" lon="2.86897">
        <ele>257.77</ele>
        <time>2014-10-11T11:44:46Z</time>
      </trkpt>
      <trkpt lat="46.50661" lon="2.86858">
        <ele>257.77</ele>
        <time>2014-10-11T11:45:06Z</time>
      </trkpt>
      <trkpt lat="46.5066" lon="2.86824">
        <ele>257.77</ele>
        <time>2014-10-11T11:45:24Z</time>
      </trkpt>
      <trkpt lat="46.50661" lon="2.86787">
        <ele>257.77</ele>
        <time>2014-10-11T11:45:43Z</time>
      </trkpt>
      <trkpt lat="46.5066" lon="2.86768">
        <ele>256.81</ele>
        <time>2014-10-11T11:45:52Z</time>
      </trkpt>
      <trkpt lat="46.50651" lon="2.86734">
        <ele>256.33</ele>
        <time>2014-10-11T11:46:10Z</time>
      </trkpt>
      <trkpt lat="46.50637" lon="2.86699">
        <ele>255.37</ele>
        <time>2014-10-11T11:46:30Z</time>
      </trkpt>
      <trkpt lat="46.50626" lon="2.86661">
        <ele>253.44</ele>
        <time>2014-10-11T11:46:50Z</time>
      </trkpt>
      <trkpt lat="46.50621" lon="2.86624">
        <ele>252.48</ele>
        <time>2014-10-11T11:47:08Z</time>
      </trkpt>
      <trkpt lat="46.50624" lon="2.86591">
        <ele>251.52</ele>
        <time>2014-10-11T11:47:26Z</time>
      </trkpt>
      <trkpt lat="46.50632" lon="2.8657">
        <ele>250.56</ele>
        <time>2014-10-11T11:47:38Z</time>
      </trkpt>
      <trkpt lat="46.50642" lon="2.86545">
        <ele>248.64</ele>
        <time>2014-10-11T11:47:56Z</time>
      </trkpt>
      <trkpt lat="46.50651" lon="2.86502">
        <ele>246.23</ele>
        <time>2014-10-11T11:48:21Z</time>
      </trkpt>
      <trkpt lat="46.50657" lon="2.86479">
        <ele>244.31</ele>
        <time>2014-10-11T11:48:35Z</time>
      </trkpt>
      <trkpt lat="46.5066" lon="2.86444">
        <ele>242.87</ele>
        <time>2014-10-11T11:48:50Z</time>
      </trkpt>
      <trkpt lat="46.50647" lon="2.86395">
        <ele>241.43</ele>
        <time>2014-10-11T11:49:12Z</time>
      </trkpt>
      <trkpt lat="46.50635" lon="2.86379">
        <ele>240.95</ele>
        <time>2014-10-11T11:49:45Z</time>
      </trkpt>
      <trkpt lat="46.50618" lon="2.86354">
        <ele>241.91</ele>
        <time>2014-10-11T11:50:04Z</time>
      </trkpt>
      <trkpt lat="46.506" lon="2.86332">
        <ele>243.35</ele>
        <time>2014-10-11T11:50:21Z</time>
      </trkpt>
      <trkpt lat="46.50579" lon="2.86317">
        <ele>245.27</ele>
        <time>2014-10-11T11:50:40Z</time>
      </trkpt>
      <trkpt lat="46.5057" lon="2.8631">
        <ele>245.75</ele>
        <time>2014-10-11T11:50:53Z</time>
      </trkpt>
      <trkpt lat="46.50554" lon="2.86319">
        <ele>244.31</ele>
        <time>2014-10-11T11:51:13Z</time>
      </trkpt>
      <trkpt lat="46.50534" lon="2.86318">
        <ele>242.87</ele>
        <time>2014-10-11T11:51:30Z</time>
      </trkpt>
      <trkpt lat="46.50511" lon="2.86315">
        <ele>241.43</ele>
        <time>2014-10-11T11:51:47Z</time>
      </trkpt>
      <trkpt lat="46.50486" lon="2.86313">
        <ele>239.02</ele>
        <time>2014-10-11T11:52:05Z</time>
      </trkpt>
      <trkpt lat="46.50458" lon="2.86313">
        <ele>237.58</ele>
        <time>2014-10-11T11:52:25Z</time>
      </trkpt>
      <trkpt lat="46.50439" lon="2.86324">
        <ele>237.1</ele>
        <time>2014-10-11T11:52:41Z</time>
      </trkpt>
      <trkpt lat="46.50415" lon="2.86344">
        <ele>236.14</ele>
        <time>2014-10-11T11:53:00Z</time>
      </trkpt>
      <trkpt lat="46.50387" lon="2.86363">
        <ele>235.66</ele>
        <time>2014-10-11T11:53:22Z</time>
      </trkpt>
      <trkpt lat="46.50368" lon="2.8638">
        <ele>235.66</ele>
        <time>2014-10-11T11:53:41Z</time>
      </trkpt>
      <trkpt lat="46.50351" lon="2.86396">
        <ele>235.18</ele>
        <time>2014-10-11T11:53:56Z</time>
      </trkpt>
      <trkpt lat="46.50339" lon="2.86405">
        <ele>233.74</ele>
        <time>2014-10-11T11:54:08Z</time>
      </trkpt>
      <trkpt lat="46.50334" lon="2.86411">
        <ele>234.22</ele>
        <time>2014-10-11T11:56:16Z</time>
      </trkpt>
      <trkpt lat="46.5034" lon="2.86419">
        <ele>234.7</ele>
        <time>2014-10-11T11:57:04Z</time>
      </trkpt>
      <trkpt lat="46.50342" lon="2.86432">
        <ele>235.18</ele>
        <time>2014-10-11T11:57:48Z</time>
      </trkpt>
      <trkpt lat="46.50338" lon="2.8645">
        <ele>235.18</ele>
        <time>2014-10-11T11:58:07Z</time>
      </trkpt>
      <trkpt lat="46.50331" lon="2.86477">
        <ele>235.18</ele>
        <time>2014-10-11T11:58:23Z</time>
      </trkpt>
      <trkpt lat="46.50338" lon="2.86497">
        <ele>235.18</ele>
        <time>2014-10-11T12:01:59Z</time>
      </trkpt>
      <trkpt lat="46.50356" lon="2.8652">
        <ele>235.66</ele>
        <time>2014-10-11T12:02:17Z</time>
      </trkpt>
      <trkpt lat="46.50359" lon="2.86555">
        <ele>236.14</ele>
        <time>2014-10-11T12:02:35Z</time>
      </trkpt>
      <trkpt lat="46.50359" lon="2.86589">
        <ele>237.1</ele>
        <time>2014-10-11T12:02:53Z</time>
      </trkpt>
      <trkpt lat="46.50361" lon="2.86621">
        <ele>237.58</ele>
        <time>2014-10-11T12:03:11Z</time>
      </trkpt>
      <trkpt lat="46.50361" lon="2.86645">
        <ele>238.06</ele>
        <time>2014-10-11T12:03:26Z</time>
      </trkpt>
      <trkpt lat="46.50346" lon="2.86666">
        <ele>238.54</ele>
        <time>2014-10-11T12:03:44Z</time>
      </trkpt>
      <trkpt lat="46.50322" lon="2.86679">
        <ele>239.51</ele>
        <time>2014-10-11T12:04:04Z</time>
      </trkpt>
      <trkpt lat="46.50299" lon="2.86693">
        <ele>240.95</ele>
        <time>2014-10-11T12:04:24Z</time>
      </trkpt>
      <trkpt lat="46.50272" lon="2.86713">
        <ele>243.35</ele>
        <time>2014-10-11T12:04:46Z</time>
      </trkpt>
      <trkpt lat="46.50247" lon="2.86734">
        <ele>245.75</ele>
        <time>2014-10-11T12:05:08Z</time>
      </trkpt>
      <trkpt lat="46.50224" lon="2.86751">
        <ele>248.16</ele>
        <time>2014-10-11T12:05:28Z</time>
      </trkpt>
      <trkpt lat="46.50212" lon="2.8676">
        <ele>249.12</ele>
        <time>2014-10-11T12:05:40Z</time>
      </trkpt>
      <trkpt lat="46.50191" lon="2.86772">
        <ele>251.04</ele>
        <time>2014-10-11T12:05:59Z</time>
      </trkpt>
      <trkpt lat="46.50191" lon="2.86727">
        <ele>249.12</ele>
        <time>2014-10-11T12:06:25Z</time>
      </trkpt>
      <trkpt lat="46.50192" lon="2.86698">
        <ele>248.16</ele>
        <time>2014-10-11T12:06:42Z</time>
      </trkpt>
      <trkpt lat="46.50189" lon="2.86685">
        <ele>247.68</ele>
        <time>2014-10-11T12:07:21Z</time>
      </trkpt>
      <trkpt lat="46.50174" lon="2.86655">
        <ele>245.75</ele>
        <time>2014-10-11T12:07:40Z</time>
      </trkpt>
      <trkpt lat="46.50158" lon="2.86642">
        <ele>244.31</ele>
        <time>2014-10-11T12:07:56Z</time>
      </trkpt>
      <trkpt lat="46.50149" lon="2.86634">
        <ele>243.83</ele>
        <time>2014-10-11T12:08:10Z</time>
      </trkpt>
      <trkpt lat="46.50127" lon="2.86621">
        <ele>242.87</ele>
        <time>2014-10-11T12:08:27Z</time>
      </trkpt>
      <trkpt lat="46.50101" lon="2.86604">
        <ele>242.87</ele>
        <time>2014-10-11T12:08:47Z</time>
      </trkpt>
      <trkpt lat="46.5008" lon="2.86578">
        <ele>244.31</ele>
        <time>2014-10-11T12:09:07Z</time>
      </trkpt>
      <trkpt lat="46.50062" lon="2.8654">
        <ele>246.23</ele>
        <time>2014-10-11T12:09:29Z</time>
      </trkpt>
      <trkpt lat="46.50048" lon="2.86506">
        <ele>247.2</ele>
        <time>2014-10-11T12:09:49Z</time>
      </trkpt>
      <trkpt lat="46.50035" lon="2.86473">
        <ele>248.16</ele>
        <time>2014-10-11T12:10:08Z</time>
      </trkpt>
      <trkpt lat="46.50019" lon="2.86432">
        <ele>249.6</ele>
        <time>2014-10-11T12:10:30Z</time>
      </trkpt>
      <trkpt lat="46.50005" lon="2.86398">
        <ele>249.6</ele>
        <time>2014-10-11T12:10:50Z</time>
      </trkpt>
      <trkpt lat="46.49984" lon="2.86363">
        <ele>250.08</ele>
        <time>2014-10-11T12:11:13Z</time>
      </trkpt>
      <trkpt lat="46.49963" lon="2.86333">
        <ele>250.08</ele>
        <time>2014-10-11T12:11:34Z</time>
      </trkpt>
      <trkpt lat="46.49944" lon="2.86302">
        <ele>250.56</ele>
        <time>2014-10-11T12:11:54Z</time>
      </trkpt>
      <trkpt lat="46.49932" lon="2.86271">
        <ele>251.52</ele>
        <time>2014-10-11T12:12:12Z</time>
      </trkpt>
      <trkpt lat="46.49925" lon="2.86238">
        <ele>251.52</ele>
        <time>2014-10-11T12:12:31Z</time>
      </trkpt>
      <trkpt lat="46.49918" lon="2.86202">
        <ele>252</ele>
        <time>2014-10-11T12:12:56Z</time>
      </trkpt>
      <trkpt lat="46.49914" lon="2.86177">
        <ele>252.96</ele>
        <time>2014-10-11T12:13:11Z</time>
      </trkpt>
      <trkpt lat="46.49909" lon="2.8614">
        <ele>253.44</ele>
        <time>2014-10-11T12:13:30Z</time>
      </trkpt>
      <trkpt lat="46.49903" lon="2.86106">
        <ele>254.41</ele>
        <time>2014-10-11T12:13:46Z</time>
      </trkpt>
      <trkpt lat="46.49898" lon="2.8607">
        <ele>254.89</ele>
        <time>2014-10-11T12:14:06Z</time>
      </trkpt>
      <trkpt lat="46.49895" lon="2.86053">
        <ele>255.37</ele>
        <time>2014-10-11T12:14:25Z</time>
      </trkpt>
      <trkpt lat="46.49887" lon="2.86023">
        <ele>255.85</ele>
        <time>2014-10-11T12:14:44Z</time>
      </trkpt>
      <trkpt lat="46.49883" lon="2.86008">
        <ele>255.85</ele>
        <time>2014-10-11T12:14:58Z</time>
      </trkpt>
      <trkpt lat="46.49876" lon="2.85989">
        <ele>256.33</ele>
        <time>2014-10-11T12:15:12Z</time>
      </trkpt>
      <trkpt lat="46.49867" lon="2.85973">
        <ele>257.29</ele>
        <time>2014-10-11T12:15:26Z</time>
      </trkpt>
      <trkpt lat="46.49854" lon="2.85954">
        <ele>258.25</ele>
        <time>2014-10-11T12:15:42Z</time>
      </trkpt>
      <trkpt lat="46.49846" lon="2.85936">
        <ele>258.25</ele>
        <time>2014-10-11T12:15:57Z</time>
      </trkpt>
      <trkpt lat="46.49838" lon="2.85917">
        <ele>258.25</ele>
        <time>2014-10-11T12:16:10Z</time>
      </trkpt>
      <trkpt lat="46.4983" lon="2.85905">
        <ele>258.73</ele>
        <time>2014-10-11T12:16:25Z</time>
      </trkpt>
      <trkpt lat="46.49819" lon="2.85872">
        <ele>259.21</ele>
        <time>2014-10-11T12:17:01Z</time>
      </trkpt>
      <trkpt lat="46.49815" lon="2.8586">
        <ele>259.69</ele>
        <time>2014-10-11T12:17:13Z</time>
      </trkpt>
      <trkpt lat="46.49803" lon="2.85831">
        <ele>259.69</ele>
        <time>2014-10-11T12:17:31Z</time>
      </trkpt>
      <trkpt lat="46.49788" lon="2.85797">
        <ele>260.17</ele>
        <time>2014-10-11T12:17:52Z</time>
      </trkpt>
      <trkpt lat="46.49777" lon="2.85767">
        <ele>260.65</ele>
        <time>2014-10-11T12:18:09Z</time>
      </trkpt>
      <trkpt lat="46.49765" lon="2.85738">
        <ele>260.65</ele>
        <time>2014-10-11T12:18:26Z</time>
      </trkpt>
      <trkpt lat="46.49754" lon="2.85711">
        <ele>260.65</ele>
        <time>2014-10-11T12:18:43Z</time>
      </trkpt>
      <trkpt lat="46.49743" lon="2.85683">
        <ele>260.65</ele>
        <time>2014-10-11T12:19:00Z</time>
      </trkpt>
      <trkpt lat="46.49733" lon="2.85659">
        <ele>259.21</ele>
        <time>2014-10-11T12:19:16Z</time>
      </trkpt>
      <trkpt lat="46.49727" lon="2.85647">
        <ele>259.21</ele>
        <time>2014-10-11T12:19:26Z</time>
      </trkpt>
      <trkpt lat="46.49714" lon="2.85617">
        <ele>258.73</ele>
        <time>2014-10-11T12:19:44Z</time>
      </trkpt>
      <trkpt lat="46.49704" lon="2.85594">
        <ele>258.25</ele>
        <time>2014-10-11T12:20:01Z</time>
      </trkpt>
      <trkpt lat="46.49699" lon="2.85579">
        <ele>258.25</ele>
        <time>2014-10-11T12:20:11Z</time>
      </trkpt>
      <trkpt lat="46.49697" lon="2.85566">
        <ele>257.77</ele>
        <time>2014-10-11T12:20:53Z</time>
      </trkpt>
      <trkpt lat="46.49695" lon="2.85559">
        <ele>259.69</ele>
        <time>2014-10-11T12:36:59Z</time>
      </trkpt>
      <trkpt lat="46.49678" lon="2.85518">
        <ele>259.69</ele>
        <time>2014-10-11T12:37:26Z</time>
      </trkpt>
      <trkpt lat="46.49673" lon="2.85503">
        <ele>258.25</ele>
        <time>2014-10-11T12:37:43Z</time>
      </trkpt>
      <trkpt lat="46.49666" lon="2.85485">
        <ele>258.25</ele>
        <time>2014-10-11T12:37:59Z</time>
      </trkpt>
      <trkpt lat="46.49656" lon="2.8546">
        <ele>257.29</ele>
        <time>2014-10-11T12:38:16Z</time>
      </trkpt>
      <trkpt lat="46.49645" lon="2.85434">
        <ele>256.81</ele>
        <time>2014-10-11T12:38:33Z</time>
      </trkpt>
      <trkpt lat="46.49633" lon="2.85402">
        <ele>255.85</ele>
        <time>2014-10-11T12:38:52Z</time>
      </trkpt>
      <trkpt lat="46.49622" lon="2.85372">
        <ele>254.89</ele>
        <time>2014-10-11T12:39:10Z</time>
      </trkpt>
      <trkpt lat="46.49617" lon="2.85343">
        <ele>254.41</ele>
        <time>2014-10-11T12:39:25Z</time>
      </trkpt>
      <trkpt lat="46.49611" lon="2.85316">
        <ele>253.93</ele>
        <time>2014-10-11T12:39:40Z</time>
      </trkpt>
      <trkpt lat="46.49606" lon="2.85288">
        <ele>253.44</ele>
        <time>2014-10-11T12:39:55Z</time>
      </trkpt>
      <trkpt lat="46.49602" lon="2.85257">
        <ele>252.48</ele>
        <time>2014-10-11T12:40:13Z</time>
      </trkpt>
      <trkpt lat="46.49596" lon="2.85228">
        <ele>251.52</ele>
        <time>2014-10-11T12:40:29Z</time>
      </trkpt>
      <trkpt lat="46.49587" lon="2.85205">
        <ele>250.56</ele>
        <time>2014-10-11T12:40:45Z</time>
      </trkpt>
      <trkpt lat="46.49591" lon="2.85191">
        <ele>250.56</ele>
        <time>2014-10-11T12:40:59Z</time>
      </trkpt>
      <trkpt lat="46.49611" lon="2.85153">
        <ele>250.08</ele>
        <time>2014-10-11T12:41:27Z</time>
      </trkpt>
      <trkpt lat="46.49621" lon="2.85132">
        <ele>250.08</ele>
        <time>2014-10-11T12:41:44Z</time>
      </trkpt>
      <trkpt lat="46.49632" lon="2.8511">
        <ele>250.08</ele>
        <time>2014-10-11T12:41:58Z</time>
      </trkpt>
      <trkpt lat="46.49657" lon="2.85078">
        <ele>250.08</ele>
        <time>2014-10-11T12:42:24Z</time>
      </trkpt>
      <trkpt lat="46.49682" lon="2.85071">
        <ele>252</ele>
        <time>2014-10-11T12:42:46Z</time>
      </trkpt>
      <trkpt lat="46.49705" lon="2.85064">
        <ele>252.48</ele>
        <time>2014-10-11T12:43:04Z</time>
      </trkpt>
      <trkpt lat="46.49731" lon="2.85061">
        <ele>252.48</ele>
        <time>2014-10-11T12:43:24Z</time>
      </trkpt>
      <trkpt lat="46.49761" lon="2.85054">
        <ele>252.48</ele>
        <time>2014-10-11T12:43:47Z</time>
      </trkpt>
      <trkpt lat="46.4978" lon="2.85047">
        <ele>252.48</ele>
        <time>2014-10-11T12:44:01Z</time>
      </trkpt>
      <trkpt lat="46.49799" lon="2.85043">
        <ele>250.56</ele>
        <time>2014-10-11T12:44:16Z</time>
      </trkpt>
      <trkpt lat="46.49816" lon="2.85041">
        <ele>249.12</ele>
        <time>2014-10-11T12:44:30Z</time>
      </trkpt>
      <trkpt lat="46.49834" lon="2.85019">
        <ele>246.72</ele>
        <time>2014-10-11T12:44:48Z</time>
      </trkpt>
      <trkpt lat="46.49844" lon="2.84993">
        <ele>244.31</ele>
        <time>2014-10-11T12:45:04Z</time>
      </trkpt>
      <trkpt lat="46.49847" lon="2.84981">
        <ele>243.35</ele>
        <time>2014-10-11T12:45:22Z</time>
      </trkpt>
      <trkpt lat="46.49858" lon="2.84963">
        <ele>240.95</ele>
        <time>2014-10-11T12:45:55Z</time>
      </trkpt>
      <trkpt lat="46.49874" lon="2.84936">
        <ele>237.58</ele>
        <time>2014-10-11T12:46:16Z</time>
      </trkpt>
      <trkpt lat="46.49887" lon="2.84924">
        <ele>236.14</ele>
        <time>2014-10-11T12:46:27Z</time>
      </trkpt>
      <trkpt lat="46.49903" lon="2.84921">
        <ele>235.18</ele>
        <time>2014-10-11T12:46:46Z</time>
      </trkpt>
      <trkpt lat="46.49911" lon="2.8492">
        <ele>234.7</ele>
        <time>2014-10-11T12:47:44Z</time>
      </trkpt>
      <trkpt lat="46.49914" lon="2.84929">
        <ele>234.22</ele>
        <time>2014-10-11T12:53:28Z</time>
      </trkpt>
      <trkpt lat="46.49924" lon="2.84935">
        <ele>234.22</ele>
        <time>2014-10-11T12:53:43Z</time>
      </trkpt>
      <trkpt lat="46.49939" lon="2.84937">
        <ele>235.18</ele>
        <time>2014-10-11T12:54:11Z</time>
      </trkpt>
      <trkpt lat="46.49952" lon="2.84926">
        <ele>237.1</ele>
        <time>2014-10-11T12:54:38Z</time>
      </trkpt>
      <trkpt lat="46.49959" lon="2.84911">
        <ele>238.06</ele>
        <time>2014-10-11T12:54:48Z</time>
      </trkpt>
      <trkpt lat="46.49968" lon="2.84892">
        <ele>239.02</ele>
        <time>2014-10-11T12:55:04Z</time>
      </trkpt>
      <trkpt lat="46.49971" lon="2.84886">
        <ele>239.02</ele>
        <time>2014-10-11T12:56:50Z</time>
      </trkpt>
      <trkpt lat="46.49981" lon="2.84869">
        <ele>239.99</ele>
        <time>2014-10-11T12:57:07Z</time>
      </trkpt>
      <trkpt lat="46.49995" lon="2.84847">
        <ele>240.95</ele>
        <time>2014-10-11T12:57:23Z</time>
      </trkpt>
      <trkpt lat="46.50011" lon="2.84819">
        <ele>242.39</ele>
        <time>2014-10-11T12:57:42Z</time>
      </trkpt>
      <trkpt lat="46.50027" lon="2.84792">
        <ele>243.83</ele>
        <time>2014-10-11T12:58:00Z</time>
      </trkpt>
      <trkpt lat="46.50044" lon="2.84767">
        <ele>244.31</ele>
        <time>2014-10-11T12:58:18Z</time>
      </trkpt>
      <trkpt lat="46.50062" lon="2.8474">
        <ele>245.75</ele>
        <time>2014-10-11T12:58:39Z</time>
      </trkpt>
      <trkpt lat="46.50083" lon="2.84714">
        <ele>246.72</ele>
        <time>2014-10-11T12:59:00Z</time>
      </trkpt>
      <trkpt lat="46.50102" lon="2.84694">
        <ele>248.16</ele>
        <time>2014-10-11T12:59:18Z</time>
      </trkpt>
      <trkpt lat="46.50109" lon="2.84651">
        <ele>249.6</ele>
        <time>2014-10-11T12:59:41Z</time>
      </trkpt>
      <trkpt lat="46.50111" lon="2.84612">
        <ele>250.08</ele>
        <time>2014-10-11T13:00:00Z</time>
      </trkpt>
      <trkpt lat="46.50112" lon="2.84567">
        <ele>250.56</ele>
        <time>2014-10-11T13:00:21Z</time>
      </trkpt>
      <trkpt lat="46.50113" lon="2.84545">
        <ele>252</ele>
        <time>2014-10-11T13:00:33Z</time>
      </trkpt>
      <trkpt lat="46.50113" lon="2.84507">
        <ele>252</ele>
        <time>2014-10-11T13:00:52Z</time>
      </trkpt>
      <trkpt lat="46.50114" lon="2.84471">
        <ele>252</ele>
        <time>2014-10-11T13:01:11Z</time>
      </trkpt>
      <trkpt lat="46.50113" lon="2.84426">
        <ele>252</ele>
        <time>2014-10-11T13:01:34Z</time>
      </trkpt>
      <trkpt lat="46.5011" lon="2.84388">
        <ele>252.96</ele>
        <time>2014-10-11T13:01:54Z</time>
      </trkpt>
      <trkpt lat="46.5011" lon="2.84365">
        <ele>252.96</ele>
        <time>2014-10-11T13:02:06Z</time>
      </trkpt>
      <trkpt lat="46.5011" lon="2.84336">
        <ele>253.44</ele>
        <time>2014-10-11T13:02:37Z</time>
      </trkpt>
      <trkpt lat="46.5011" lon="2.84319">
        <ele>253.93</ele>
        <time>2014-10-11T13:02:52Z</time>
      </trkpt>
      <trkpt lat="46.50108" lon="2.84288">
        <ele>253.93</ele>
        <time>2014-10-11T13:03:22Z</time>
      </trkpt>
      <trkpt lat="46.50106" lon="2.84254">
        <ele>253.93</ele>
        <time>2014-10-11T13:03:41Z</time>
      </trkpt>
      <trkpt lat="46.50107" lon="2.8422">
        <ele>253.93</ele>
        <time>2014-10-11T13:04:00Z</time>
      </trkpt>
      <trkpt lat="46.50111" lon="2.84182">
        <ele>253.93</ele>
        <time>2014-10-11T13:04:19Z</time>
      </trkpt>
      <trkpt lat="46.50116" lon="2.8415">
        <ele>252.96</ele>
        <time>2014-10-11T13:04:38Z</time>
      </trkpt>
      <trkpt lat="46.50118" lon="2.84131">
        <ele>252.96</ele>
        <time>2014-10-11T13:05:24Z</time>
      </trkpt>
      <trkpt lat="46.50122" lon="2.8409">
        <ele>252.96</ele>
        <time>2014-10-11T13:05:51Z</time>
      </trkpt>
      <trkpt lat="46.50125" lon="2.84053">
        <ele>252.96</ele>
        <time>2014-10-11T13:06:09Z</time>
      </trkpt>
      <trkpt lat="46.5013" lon="2.84022">
        <ele>252.96</ele>
        <time>2014-10-11T13:06:26Z</time>
      </trkpt>
      <trkpt lat="46.50133" lon="2.83991">
        <ele>252.96</ele>
        <time>2014-10-11T13:06:42Z</time>
      </trkpt>
      <trkpt lat="46.50139" lon="2.83955">
        <ele>252.96</ele>
        <time>2014-10-11T13:07:01Z</time>
      </trkpt>
      <trkpt lat="46.50142" lon="2.8393">
        <ele>253.93</ele>
        <time>2014-10-11T13:07:15Z</time>
      </trkpt>
      <trkpt lat="46.50145" lon="2.83891">
        <ele>253.93</ele>
        <time>2014-10-11T13:07:34Z</time>
      </trkpt>
      <trkpt lat="46.50149" lon="2.83857">
        <ele>254.41</ele>
        <time>2014-10-11T13:07:51Z</time>
      </trkpt>
      <trkpt lat="46.50152" lon="2.83838">
        <ele>254.89</ele>
        <time>2014-10-11T13:08:01Z</time>
      </trkpt>
      <trkpt lat="46.50156" lon="2.83803">
        <ele>255.37</ele>
        <time>2014-10-11T13:08:20Z</time>
      </trkpt>
      <trkpt lat="46.50159" lon="2.83771">
        <ele>255.37</ele>
        <time>2014-10-11T13:08:39Z</time>
      </trkpt>
      <trkpt lat="46.50158" lon="2.83758">
        <ele>255.37</ele>
        <time>2014-10-11T13:08:52Z</time>
      </trkpt>
      <trkpt lat="46.50147" lon="2.83735">
        <ele>255.37</ele>
        <time>2014-10-11T13:09:05Z</time>
      </trkpt>
      <trkpt lat="46.50147" lon="2.83721">
        <ele>253.93</ele>
        <time>2014-10-11T13:09:12Z</time>
      </trkpt>
      <trkpt lat="46.50153" lon="2.837">
        <ele>252.48</ele>
        <time>2014-10-11T13:09:28Z</time>
      </trkpt>
      <trkpt lat="46.50156" lon="2.83687">
        <ele>252.48</ele>
        <time>2014-10-11T13:09:44Z</time>
      </trkpt>
      <trkpt lat="46.50167" lon="2.83645">
        <ele>251.52</ele>
        <time>2014-10-11T13:10:14Z</time>
      </trkpt>
      <trkpt lat="46.50175" lon="2.83611">
        <ele>250.56</ele>
        <time>2014-10-11T13:10:33Z</time>
      </trkpt>
      <trkpt lat="46.50182" lon="2.83591">
        <ele>250.08</ele>
        <time>2014-10-11T13:10:45Z</time>
      </trkpt>
      <trkpt lat="46.50189" lon="2.83579">
        <ele>249.6</ele>
        <time>2014-10-11T13:10:53Z</time>
      </trkpt>
      <trkpt lat="46.50196" lon="2.83557">
        <ele>248.64</ele>
        <time>2014-10-11T13:11:11Z</time>
      </trkpt>
      <trkpt lat="46.50202" lon="2.8354">
        <ele>247.68</ele>
        <time>2014-10-11T13:11:27Z</time>
      </trkpt>
      <trkpt lat="46.50214" lon="2.83507">
        <ele>246.23</ele>
        <time>2014-10-11T13:11:47Z</time>
      </trkpt>
      <trkpt lat="46.50223" lon="2.83475">
        <ele>244.79</ele>
        <time>2014-10-11T13:12:05Z</time>
      </trkpt>
      <trkpt lat="46.50234" lon="2.83441">
        <ele>242.87</ele>
        <time>2014-10-11T13:12:24Z</time>
      </trkpt>
      <trkpt lat="46.50244" lon="2.83407">
        <ele>241.91</ele>
        <time>2014-10-11T13:12:42Z</time>
      </trkpt>
      <trkpt lat="46.50255" lon="2.83377">
        <ele>240.47</ele>
        <time>2014-10-11T13:12:59Z</time>
      </trkpt>
      <trkpt lat="46.50266" lon="2.83344">
        <ele>239.51</ele>
        <time>2014-10-11T13:13:18Z</time>
      </trkpt>
      <trkpt lat="46.50277" lon="2.83317">
        <ele>238.06</ele>
        <time>2014-10-11T13:13:36Z</time>
      </trkpt>
      <trkpt lat="46.50285" lon="2.83306">
        <ele>238.06</ele>
        <time>2014-10-11T13:13:51Z</time>
      </trkpt>
      <trkpt lat="46.5029" lon="2.83293">
        <ele>238.06</ele>
        <time>2014-10-11T13:14:54Z</time>
      </trkpt>
      <trkpt lat="46.50299" lon="2.83278">
        <ele>238.06</ele>
        <time>2014-10-11T13:15:12Z</time>
      </trkpt>
      <trkpt lat="46.50318" lon="2.83257">
        <ele>238.06</ele>
        <time>2014-10-11T13:15:32Z</time>
      </trkpt>
      <trkpt lat="46.50329" lon="2.83243">
        <ele>239.51</ele>
        <time>2014-10-11T13:15:43Z</time>
      </trkpt>
      <trkpt lat="46.50343" lon="2.83219">
        <ele>240.47</ele>
        <time>2014-10-11T13:16:01Z</time>
      </trkpt>
      <trkpt lat="46.50354" lon="2.83203">
        <ele>242.39</ele>
        <time>2014-10-11T13:16:14Z</time>
      </trkpt>
      <trkpt lat="46.50367" lon="2.83182">
        <ele>243.83</ele>
        <time>2014-10-11T13:16:31Z</time>
      </trkpt>
      <trkpt lat="46.50382" lon="2.83159">
        <ele>244.31</ele>
        <time>2014-10-11T13:16:49Z</time>
      </trkpt>
      <trkpt lat="46.50395" lon="2.83138">
        <ele>245.27</ele>
        <time>2014-10-11T13:17:07Z</time>
      </trkpt>
      <trkpt lat="46.50407" lon="2.83113">
        <ele>245.75</ele>
        <time>2014-10-11T13:17:23Z</time>
      </trkpt>
      <trkpt lat="46.5042" lon="2.83089">
        <ele>246.72</ele>
        <time>2014-10-11T13:17:40Z</time>
      </trkpt>
      <trkpt lat="46.50432" lon="2.83066">
        <ele>247.68</ele>
        <time>2014-10-11T13:17:58Z</time>
      </trkpt>
      <trkpt lat="46.50446" lon="2.83044">
        <ele>247.68</ele>
        <time>2014-10-11T13:18:15Z</time>
      </trkpt>
      <trkpt lat="46.50455" lon="2.83024">
        <ele>248.16</ele>
        <time>2014-10-11T13:18:29Z</time>
      </trkpt>
      <trkpt lat="46.50468" lon="2.83001">
        <ele>248.64</ele>
        <time>2014-10-11T13:18:45Z</time>
      </trkpt>
      <trkpt lat="46.50476" lon="2.8298">
        <ele>249.12</ele>
        <time>2014-10-11T13:19:01Z</time>
      </trkpt>
      <trkpt lat="46.50482" lon="2.82962">
        <ele>249.12</ele>
        <time>2014-10-11T13:19:32Z</time>
      </trkpt>
      <trkpt lat="46.5049" lon="2.82939">
        <ele>250.08</ele>
        <time>2014-10-11T13:19:49Z</time>
      </trkpt>
      <trkpt lat="46.50498" lon="2.82918">
        <ele>249.6</ele>
        <time>2014-10-11T13:20:58Z</time>
      </trkpt>
      <trkpt lat="46.50506" lon="2.82894">
        <ele>250.56</ele>
        <time>2014-10-11T13:21:16Z</time>
      </trkpt>
      <trkpt lat="46.50517" lon="2.82868">
        <ele>251.04</ele>
        <time>2014-10-11T13:21:34Z</time>
      </trkpt>
      <trkpt lat="46.50526" lon="2.82836">
        <ele>252.48</ele>
        <time>2014-10-11T13:21:53Z</time>
      </trkpt>
      <trkpt lat="46.50535" lon="2.82811">
        <ele>253.93</ele>
        <time>2014-10-11T13:22:09Z</time>
      </trkpt>
      <trkpt lat="46.50549" lon="2.82779">
        <ele>255.37</ele>
        <time>2014-10-11T13:22:29Z</time>
      </trkpt>
      <trkpt lat="46.50564" lon="2.8276">
        <ele>256.81</ele>
        <time>2014-10-11T13:22:44Z</time>
      </trkpt>
      <trkpt lat="46.50574" lon="2.82735">
        <ele>257.77</ele>
        <time>2014-10-11T13:23:00Z</time>
      </trkpt>
      <trkpt lat="46.50578" lon="2.82716">
        <ele>258.25</ele>
        <time>2014-10-11T13:23:10Z</time>
      </trkpt>
      <trkpt lat="46.50582" lon="2.82684">
        <ele>258.73</ele>
        <time>2014-10-11T13:23:28Z</time>
      </trkpt>
      <trkpt lat="46.50583" lon="2.82651">
        <ele>259.21</ele>
        <time>2014-10-11T13:23:45Z</time>
      </trkpt>
      <trkpt lat="46.50595" lon="2.82629">
        <ele>259.69</ele>
        <time>2014-10-11T13:24:01Z</time>
      </trkpt>
      <trkpt lat="46.50604" lon="2.82616">
        <ele>260.17</ele>
        <time>2014-10-11T13:24:12Z</time>
      </trkpt>
      <trkpt lat="46.50618" lon="2.82592">
        <ele>260.65</ele>
        <time>2014-10-11T13:24:29Z</time>
      </trkpt>
      <trkpt lat="46.50636" lon="2.82565">
        <ele>261.14</ele>
        <time>2014-10-11T13:24:50Z</time>
      </trkpt>
      <trkpt lat="46.5065" lon="2.82545">
        <ele>262.1</ele>
        <time>2014-10-11T13:25:06Z</time>
      </trkpt>
      <trkpt lat="46.50662" lon="2.82524">
        <ele>262.58</ele>
        <time>2014-10-11T13:25:21Z</time>
      </trkpt>
      <trkpt lat="46.50678" lon="2.82507">
        <ele>263.54</ele>
        <time>2014-10-11T13:25:39Z</time>
      </trkpt>
      <trkpt lat="46.5069" lon="2.8251">
        <ele>264.02</ele>
        <time>2014-10-11T13:25:56Z</time>
      </trkpt>
      <trkpt lat="46.507" lon="2.82516">
        <ele>264.02</ele>
        <time>2014-10-11T13:26:06Z</time>
      </trkpt>
      <trkpt lat="46.50717" lon="2.82525">
        <ele>264.02</ele>
        <time>2014-10-11T13:26:22Z</time>
      </trkpt>
      <trkpt lat="46.50738" lon="2.82539">
        <ele>264.02</ele>
        <time>2014-10-11T13:26:40Z</time>
      </trkpt>
      <trkpt lat="46.50759" lon="2.82557">
        <ele>264.5</ele>
        <time>2014-10-11T13:26:57Z</time>
      </trkpt>
      <trkpt lat="46.5078" lon="2.82571">
        <ele>264.5</ele>
        <time>2014-10-11T13:27:13Z</time>
      </trkpt>
      <trkpt lat="46.50799" lon="2.82583">
        <ele>264.5</ele>
        <time>2014-10-11T13:27:28Z</time>
      </trkpt>
      <trkpt lat="46.50809" lon="2.82588">
        <ele>264.98</ele>
        <time>2014-10-11T13:27:37Z</time>
      </trkpt>
      <trkpt lat="46.5083" lon="2.82589">
        <ele>264.98</ele>
        <time>2014-10-11T13:27:53Z</time>
      </trkpt>
      <trkpt lat="46.50846" lon="2.82588">
        <ele>266.42</ele>
        <time>2014-10-11T13:28:08Z</time>
      </trkpt>
      <trkpt lat="46.50865" lon="2.826">
        <ele>266.9</ele>
        <time>2014-10-11T13:28:27Z</time>
      </trkpt>
      <trkpt lat="46.50883" lon="2.82616">
        <ele>266.9</ele>
        <time>2014-10-11T13:28:44Z</time>
      </trkpt>
      <trkpt lat="46.50892" lon="2.82628">
        <ele>266.9</ele>
        <time>2014-10-11T13:28:57Z</time>
      </trkpt>
      <trkpt lat="46.50905" lon="2.82644">
        <ele>267.38</ele>
        <time>2014-10-11T13:29:11Z</time>
      </trkpt>
      <trkpt lat="46.50919" lon="2.82664">
        <ele>267.38</ele>
        <time>2014-10-11T13:29:27Z</time>
      </trkpt>
      <trkpt lat="46.5093" lon="2.8268">
        <ele>267.38</ele>
        <time>2014-10-11T13:29:42Z</time>
      </trkpt>
      <trkpt lat="46.50951" lon="2.827">
        <ele>267.86</ele>
        <time>2014-10-11T13:30:00Z</time>
      </trkpt>
      <trkpt lat="46.5097" lon="2.82708">
        <ele>267.86</ele>
        <time>2014-10-11T13:30:15Z</time>
      </trkpt>
      <trkpt lat="46.50989" lon="2.8272">
        <ele>268.35</ele>
        <time>2014-10-11T13:30:30Z</time>
      </trkpt>
      <trkpt lat="46.51005" lon="2.82728">
        <ele>268.35</ele>
        <time>2014-10-11T13:30:45Z</time>
      </trkpt>
      <trkpt lat="46.51033" lon="2.82727">
        <ele>269.31</ele>
        <time>2014-10-11T13:31:07Z</time>
      </trkpt>
      <trkpt lat="46.51053" lon="2.82728">
        <ele>270.27</ele>
        <time>2014-10-11T13:31:23Z</time>
      </trkpt>
      <trkpt lat="46.51076" lon="2.82729">
        <ele>270.75</ele>
        <time>2014-10-11T13:31:41Z</time>
      </trkpt>
      <trkpt lat="46.51094" lon="2.82729">
        <ele>271.71</ele>
        <time>2014-10-11T13:31:56Z</time>
      </trkpt>
      <trkpt lat="46.51115" lon="2.82729">
        <ele>272.19</ele>
        <time>2014-10-11T13:32:12Z</time>
      </trkpt>
      <trkpt lat="46.51136" lon="2.82735">
        <ele>273.15</ele>
        <time>2014-10-11T13:32:29Z</time>
      </trkpt>
      <trkpt lat="46.51158" lon="2.82742">
        <ele>274.11</ele>
        <time>2014-10-11T13:32:45Z</time>
      </trkpt>
      <trkpt lat="46.51178" lon="2.82748">
        <ele>274.11</ele>
        <time>2014-10-11T13:33:00Z</time>
      </trkpt>
      <trkpt lat="46.51195" lon="2.82754">
        <ele>274.11</ele>
        <time>2014-10-11T13:33:14Z</time>
      </trkpt>
      <trkpt lat="46.51212" lon="2.82762">
        <ele>273.15</ele>
        <time>2014-10-11T13:33:27Z</time>
      </trkpt>
      <trkpt lat="46.5123" lon="2.82768">
        <ele>272.67</ele>
        <time>2014-10-11T13:33:43Z</time>
      </trkpt>
      <trkpt lat="46.5125" lon="2.82777">
        <ele>272.19</ele>
        <time>2014-10-11T13:34:00Z</time>
      </trkpt>
      <trkpt lat="46.5126" lon="2.8278">
        <ele>271.71</ele>
        <time>2014-10-11T13:34:19Z</time>
      </trkpt>
      <trkpt lat="46.51266" lon="2.82785">
        <ele>271.71</ele>
        <time>2014-10-11T13:37:39Z</time>
      </trkpt>
      <trkpt lat="46.51271" lon="2.82788">
        <ele>271.71</ele>
        <time>2014-10-11T13:39:26Z</time>
      </trkpt>
      <trkpt lat="46.51294" lon="2.8279">
        <ele>271.71</ele>
        <time>2014-10-11T13:39:43Z</time>
      </trkpt>
      <trkpt lat="46.51312" lon="2.82793">
        <ele>271.71</ele>
        <time>2014-10-11T13:39:58Z</time>
      </trkpt>
      <trkpt lat="46.5134" lon="2.82798">
        <ele>271.71</ele>
        <time>2014-10-11T13:40:19Z</time>
      </trkpt>
      <trkpt lat="46.51364" lon="2.82803">
        <ele>271.23</ele>
        <time>2014-10-11T13:40:37Z</time>
      </trkpt>
      <trkpt lat="46.51386" lon="2.82813">
        <ele>270.27</ele>
        <time>2014-10-11T13:40:54Z</time>
      </trkpt>
      <trkpt lat="46.51406" lon="2.82825">
        <ele>268.83</ele>
        <time>2014-10-11T13:41:10Z</time>
      </trkpt>
      <trkpt lat="46.51416" lon="2.82832">
        <ele>267.86</ele>
        <time>2014-10-11T13:41:21Z</time>
      </trkpt>
      <trkpt lat="46.51432" lon="2.82844">
        <ele>267.38</ele>
        <time>2014-10-11T13:41:35Z</time>
      </trkpt>
      <trkpt lat="46.51446" lon="2.82852">
        <ele>266.9</ele>
        <time>2014-10-11T13:41:50Z</time>
      </trkpt>
      <trkpt lat="46.51458" lon="2.82859">
        <ele>266.9</ele>
        <time>2014-10-11T13:42:05Z</time>
      </trkpt>
      <trkpt lat="46.51473" lon="2.82862">
        <ele>266.9</ele>
        <time>2014-10-11T13:42:20Z</time>
      </trkpt>
      <trkpt lat="46.5149" lon="2.82865">
        <ele>266.9</ele>
        <time>2014-10-11T13:42:43Z</time>
      </trkpt>
      <trkpt lat="46.51511" lon="2.82881">
        <ele>268.83</ele>
        <time>2014-10-11T13:43:01Z</time>
      </trkpt>
      <trkpt lat="46.51529" lon="2.829">
        <ele>269.31</ele>
        <time>2014-10-11T13:43:19Z</time>
      </trkpt>
      <trkpt lat="46.5155" lon="2.82923">
        <ele>270.27</ele>
        <time>2014-10-11T13:43:39Z</time>
      </trkpt>
      <trkpt lat="46.51567" lon="2.8294">
        <ele>270.75</ele>
        <time>2014-10-11T13:43:56Z</time>
      </trkpt>
      <trkpt lat="46.51578" lon="2.8295">
        <ele>271.71</ele>
        <time>2014-10-11T13:44:06Z</time>
      </trkpt>
      <trkpt lat="46.51598" lon="2.8297">
        <ele>273.15</ele>
        <time>2014-10-11T13:44:26Z</time>
      </trkpt>
      <trkpt lat="46.51609" lon="2.82982">
        <ele>273.15</ele>
        <time>2014-10-11T13:44:37Z</time>
      </trkpt>
      <trkpt lat="46.51627" lon="2.82996">
        <ele>273.63</ele>
        <time>2014-10-11T13:44:57Z</time>
      </trkpt>
      <trkpt lat="46.51638" lon="2.82999">
        <ele>273.63</ele>
        <time>2014-10-11T13:45:11Z</time>
      </trkpt>
      <trkpt lat="46.51652" lon="2.83007">
        <ele>273.63</ele>
        <time>2014-10-11T13:45:26Z</time>
      </trkpt>
      <trkpt lat="46.51669" lon="2.83017">
        <ele>272.19</ele>
        <time>2014-10-11T13:45:41Z</time>
      </trkpt>
      <trkpt lat="46.51686" lon="2.83023">
        <ele>271.23</ele>
        <time>2014-10-11T13:45:56Z</time>
      </trkpt>
      <trkpt lat="46.51703" lon="2.83012">
        <ele>270.27</ele>
        <time>2014-10-11T13:46:13Z</time>
      </trkpt>
      <trkpt lat="46.51718" lon="2.82992">
        <ele>270.75</ele>
        <time>2014-10-11T13:46:30Z</time>
      </trkpt>
      <trkpt lat="46.51734" lon="2.82963">
        <ele>269.79</ele>
        <time>2014-10-11T13:46:50Z</time>
      </trkpt>
      <trkpt lat="46.5175" lon="2.82939">
        <ele>269.79</ele>
        <time>2014-10-11T13:47:06Z</time>
      </trkpt>
      <trkpt lat="46.51767" lon="2.82921">
        <ele>269.79</ele>
        <time>2014-10-11T13:47:20Z</time>
      </trkpt>
      <trkpt lat="46.5178" lon="2.82901">
        <ele>269.31</ele>
        <time>2014-10-11T13:47:37Z</time>
      </trkpt>
      <trkpt lat="46.5179" lon="2.82885">
        <ele>267.86</ele>
        <time>2014-10-11T13:47:50Z</time>
      </trkpt>
      <trkpt lat="46.51801" lon="2.82865">
        <ele>266.9</ele>
        <time>2014-10-11T13:48:04Z</time>
      </trkpt>
      <trkpt lat="46.51816" lon="2.82851">
        <ele>265.94</ele>
        <time>2014-10-11T13:48:19Z</time>
      </trkpt>
      <trkpt lat="46.51827" lon="2.82872">
        <ele>263.54</ele>
        <time>2014-10-11T13:48:50Z</time>
      </trkpt>
      <trkpt lat="46.51831" lon="2.82884">
        <ele>262.1</ele>
        <time>2014-10-11T13:49:01Z</time>
      </trkpt>
      <trkpt lat="46.51839" lon="2.82907">
        <ele>259.21</ele>
        <time>2014-10-11T13:49:14Z</time>
      </trkpt>
      <trkpt lat="46.51848" lon="2.82926">
        <ele>257.29</ele>
        <time>2014-10-11T13:49:28Z</time>
      </trkpt>
      <trkpt lat="46.51856" lon="2.82935">
        <ele>256.33</ele>
        <time>2014-10-11T13:49:37Z</time>
      </trkpt>
      <trkpt lat="46.51876" lon="2.82961">
        <ele>254.89</ele>
        <time>2014-10-11T13:49:57Z</time>
      </trkpt>
      <trkpt lat="46.51885" lon="2.82974">
        <ele>252.96</ele>
        <time>2014-10-11T13:50:11Z</time>
      </trkpt>
      <trkpt lat="46.51897" lon="2.82986">
        <ele>254.89</ele>
        <time>2014-10-11T13:58:03Z</time>
      </trkpt>
      <trkpt lat="46.51907" lon="2.82997">
        <ele>255.85</ele>
        <time>2014-10-11T13:58:20Z</time>
      </trkpt>
      <trkpt lat="46.5192" lon="2.83012">
        <ele>256.33</ele>
        <time>2014-10-11T13:58:37Z</time>
      </trkpt>
      <trkpt lat="46.51928" lon="2.83027">
        <ele>257.77</ele>
        <time>2014-10-11T13:58:51Z</time>
      </trkpt>
      <trkpt lat="46.5194" lon="2.83049">
        <ele>261.14</ele>
        <time>2014-10-11T13:59:10Z</time>
      </trkpt>
      <trkpt lat="46.51945" lon="2.83083">
        <ele>262.58</ele>
        <time>2014-10-11T13:59:30Z</time>
      </trkpt>
      <trkpt lat="46.51951" lon="2.83108">
        <ele>264.02</ele>
        <time>2014-10-11T13:59:47Z</time>
      </trkpt>
      <trkpt lat="46.51961" lon="2.83115">
        <ele>265.46</ele>
        <time>2014-10-11T14:00:02Z</time>
      </trkpt>
      <trkpt lat="46.5197" lon="2.83094">
        <ele>266.9</ele>
        <time>2014-10-11T14:00:19Z</time>
      </trkpt>
      <trkpt lat="46.51976" lon="2.8307">
        <ele>269.31</ele>
        <time>2014-10-11T14:00:35Z</time>
      </trkpt>
      <trkpt lat="46.51989" lon="2.83053">
        <ele>272.19</ele>
        <time>2014-10-11T14:00:52Z</time>
      </trkpt>
      <trkpt lat="46.51998" lon="2.83048">
        <ele>273.15</ele>
        <time>2014-10-11T14:01:02Z</time>
      </trkpt>
      <trkpt lat="46.52027" lon="2.83051">
        <ele>275.07</ele>
        <time>2014-10-11T14:01:26Z</time>
      </trkpt>
      <trkpt lat="46.52046" lon="2.83062">
        <ele>276.52</ele>
        <time>2014-10-11T14:01:44Z</time>
      </trkpt>
      <trkpt lat="46.52066" lon="2.83072">
        <ele>277.96</ele>
        <time>2014-10-11T14:02:01Z</time>
      </trkpt>
      <trkpt lat="46.5209" lon="2.83074">
        <ele>279.4</ele>
        <time>2014-10-11T14:02:20Z</time>
      </trkpt>
      <trkpt lat="46.52111" lon="2.83063">
        <ele>280.84</ele>
        <time>2014-10-11T14:02:37Z</time>
      </trkpt>
      <trkpt lat="46.52131" lon="2.83057">
        <ele>281.8</ele>
        <time>2014-10-11T14:02:53Z</time>
      </trkpt>
      <trkpt lat="46.5215" lon="2.83062">
        <ele>283.25</ele>
        <time>2014-10-11T14:03:11Z</time>
      </trkpt>
      <trkpt lat="46.52169" lon="2.83069">
        <ele>284.69</ele>
        <time>2014-10-11T14:03:28Z</time>
      </trkpt>
      <trkpt lat="46.5219" lon="2.83079">
        <ele>286.61</ele>
        <time>2014-10-11T14:03:46Z</time>
      </trkpt>
      <trkpt lat="46.52207" lon="2.83097">
        <ele>289.01</ele>
        <time>2014-10-11T14:04:04Z</time>
      </trkpt>
      <trkpt lat="46.52221" lon="2.83116">
        <ele>291.42</ele>
        <time>2014-10-11T14:04:21Z</time>
      </trkpt>
      <trkpt lat="46.52231" lon="2.83107">
        <ele>291.9</ele>
        <time>2014-10-11T14:04:33Z</time>
      </trkpt>
      <trkpt lat="46.52249" lon="2.83085">
        <ele>291.9</ele>
        <time>2014-10-11T14:04:52Z</time>
      </trkpt>
      <trkpt lat="46.52275" lon="2.83082">
        <ele>292.86</ele>
        <time>2014-10-11T14:05:12Z</time>
      </trkpt>
      <trkpt lat="46.52292" lon="2.83081">
        <ele>293.34</ele>
        <time>2014-10-11T14:05:29Z</time>
      </trkpt>
      <trkpt lat="46.52312" lon="2.83077">
        <ele>294.3</ele>
        <time>2014-10-11T14:05:48Z</time>
      </trkpt>
      <trkpt lat="46.52337" lon="2.83072">
        <ele>295.26</ele>
        <time>2014-10-11T14:06:09Z</time>
      </trkpt>
      <trkpt lat="46.52359" lon="2.83067">
        <ele>297.67</ele>
        <time>2014-10-11T14:06:28Z</time>
      </trkpt>
      <trkpt lat="46.52371" lon="2.83064">
        <ele>298.15</ele>
        <time>2014-10-11T14:06:39Z</time>
      </trkpt>
      <trkpt lat="46.52393" lon="2.83058">
        <ele>299.59</ele>
        <time>2014-10-11T14:06:57Z</time>
      </trkpt>
      <trkpt lat="46.52414" lon="2.83048">
        <ele>300.55</ele>
        <time>2014-10-11T14:07:15Z</time>
      </trkpt>
      <trkpt lat="46.52433" lon="2.83035">
        <ele>301.03</ele>
        <time>2014-10-11T14:07:34Z</time>
      </trkpt>
      <trkpt lat="46.52456" lon="2.83022">
        <ele>301.03</ele>
        <time>2014-10-11T14:07:53Z</time>
      </trkpt>
      <trkpt lat="46.52474" lon="2.83017">
        <ele>301.51</ele>
        <time>2014-10-11T14:08:11Z</time>
      </trkpt>
      <trkpt lat="46.52492" lon="2.83013">
        <ele>301.99</ele>
        <time>2014-10-11T14:08:26Z</time>
      </trkpt>
      <trkpt lat="46.52512" lon="2.83015">
        <ele>302.47</ele>
        <time>2014-10-11T14:08:42Z</time>
      </trkpt>
      <trkpt lat="46.52534" lon="2.83018">
        <ele>302.47</ele>
        <time>2014-10-11T14:09:00Z</time>
      </trkpt>
      <trkpt lat="46.52555" lon="2.83019">
        <ele>302.47</ele>
        <time>2014-10-11T14:09:17Z</time>
      </trkpt>
      <trkpt lat="46.5257" lon="2.83024">
        <ele>302.47</ele>
        <time>2014-10-11T14:09:31Z</time>
      </trkpt>
      <trkpt lat="46.52583" lon="2.83026">
        <ele>301.03</ele>
        <time>2014-10-11T14:09:41Z</time>
      </trkpt>
      <trkpt lat="46.52604" lon="2.83029">
        <ele>300.07</ele>
        <time>2014-10-11T14:09:58Z</time>
      </trkpt>
      <trkpt lat="46.52627" lon="2.83032">
        <ele>299.11</ele>
        <time>2014-10-11T14:10:15Z</time>
      </trkpt>
      <trkpt lat="46.52652" lon="2.83037">
        <ele>298.15</ele>
        <time>2014-10-11T14:10:35Z</time>
      </trkpt>
      <trkpt lat="46.52674" lon="2.8304">
        <ele>296.7</ele>
        <time>2014-10-11T14:10:52Z</time>
      </trkpt>
      <trkpt lat="46.52693" lon="2.83042">
        <ele>296.22</ele>
        <time>2014-10-11T14:11:09Z</time>
      </trkpt>
      <trkpt lat="46.52715" lon="2.83044">
        <ele>295.26</ele>
        <time>2014-10-11T14:11:27Z</time>
      </trkpt>
      <trkpt lat="46.52732" lon="2.83048">
        <ele>294.78</ele>
        <time>2014-10-11T14:11:43Z</time>
      </trkpt>
      <trkpt lat="46.52752" lon="2.83056">
        <ele>293.34</ele>
        <time>2014-10-11T14:12:01Z</time>
      </trkpt>
      <trkpt lat="46.52775" lon="2.83068">
        <ele>291.42</ele>
        <time>2014-10-11T14:12:19Z</time>
      </trkpt>
      <trkpt lat="46.52797" lon="2.83079">
        <ele>289.01</ele>
        <time>2014-10-11T14:12:37Z</time>
      </trkpt>
      <trkpt lat="46.52817" lon="2.83099">
        <ele>284.69</ele>
        <time>2014-10-11T14:12:58Z</time>
      </trkpt>
      <trkpt lat="46.52836" lon="2.83111">
        <ele>282.28</ele>
        <time>2014-10-11T14:13:16Z</time>
      </trkpt>
      <trkpt lat="46.52855" lon="2.83114">
        <ele>278.92</ele>
        <time>2014-10-11T14:13:32Z</time>
      </trkpt>
      <trkpt lat="46.52876" lon="2.83105">
        <ele>277.96</ele>
        <time>2014-10-11T14:13:49Z</time>
      </trkpt>
      <trkpt lat="46.52898" lon="2.83097">
        <ele>277</ele>
        <time>2014-10-11T14:14:06Z</time>
      </trkpt>
      <trkpt lat="46.52918" lon="2.83121">
        <ele>277.96</ele>
        <time>2014-10-11T14:14:32Z</time>
      </trkpt>
      <trkpt lat="46.52925" lon="2.83151">
        <ele>279.88</ele>
        <time>2014-10-11T14:14:50Z</time>
      </trkpt>
      <trkpt lat="46.52932" lon="2.83175">
        <ele>282.77</ele>
        <time>2014-10-11T14:15:07Z</time>
      </trkpt>
      <trkpt lat="46.52944" lon="2.83204">
        <ele>287.09</ele>
        <time>2014-10-11T14:15:29Z</time>
      </trkpt>
      <trkpt lat="46.52964" lon="2.83231">
        <ele>289.01</ele>
        <time>2014-10-11T14:15:54Z</time>
      </trkpt>
      <trkpt lat="46.5298" lon="2.83257">
        <ele>289.49</ele>
        <time>2014-10-11T14:16:12Z</time>
      </trkpt>
      <trkpt lat="46.52996" lon="2.83277">
        <ele>290.94</ele>
        <time>2014-10-11T14:16:31Z</time>
      </trkpt>
      <trkpt lat="46.53007" lon="2.83289">
        <ele>290.94</ele>
        <time>2014-10-11T14:16:47Z</time>
      </trkpt>
      <trkpt lat="46.53029" lon="2.83308">
        <ele>292.86</ele>
        <time>2014-10-11T14:17:07Z</time>
      </trkpt>
      <trkpt lat="46.53049" lon="2.83337">
        <ele>294.3</ele>
        <time>2014-10-11T14:17:29Z</time>
      </trkpt>
      <trkpt lat="46.53064" lon="2.8337">
        <ele>295.74</ele>
        <time>2014-10-11T14:17:49Z</time>
      </trkpt>
      <trkpt lat="46.53078" lon="2.83402">
        <ele>297.18</ele>
        <time>2014-10-11T14:18:07Z</time>
      </trkpt>
      <trkpt lat="46.53091" lon="2.83433">
        <ele>297.18</ele>
        <time>2014-10-11T14:18:26Z</time>
      </trkpt>
      <trkpt lat="46.53096" lon="2.83464">
        <ele>297.67</ele>
        <time>2014-10-11T14:18:42Z</time>
      </trkpt>
      <trkpt lat="46.53098" lon="2.83484">
        <ele>297.67</ele>
        <time>2014-10-11T14:20:37Z</time>
      </trkpt>
      <trkpt lat="46.53103" lon="2.83522">
        <ele>300.55</ele>
        <time>2014-10-11T14:20:59Z</time>
      </trkpt>
      <trkpt lat="46.53112" lon="2.8355">
        <ele>302.95</ele>
        <time>2014-10-11T14:21:18Z</time>
      </trkpt>
      <trkpt lat="46.53126" lon="2.83579">
        <ele>304.39</ele>
        <time>2014-10-11T14:21:38Z</time>
      </trkpt>
      <trkpt lat="46.5314" lon="2.83609">
        <ele>305.84</ele>
        <time>2014-10-11T14:21:57Z</time>
      </trkpt>
      <trkpt lat="46.53156" lon="2.83642">
        <ele>307.76</ele>
        <time>2014-10-11T14:22:18Z</time>
      </trkpt>
      <trkpt lat="46.53166" lon="2.83663">
        <ele>308.72</ele>
        <time>2014-10-11T14:22:56Z</time>
      </trkpt>
      <trkpt lat="46.53181" lon="2.83694">
        <ele>309.68</ele>
        <time>2014-10-11T14:23:17Z</time>
      </trkpt>
      <trkpt lat="46.53195" lon="2.83722">
        <ele>310.64</ele>
        <time>2014-10-11T14:23:36Z</time>
      </trkpt>
      <trkpt lat="46.53212" lon="2.83751">
        <ele>312.09</ele>
        <time>2014-10-11T14:23:56Z</time>
      </trkpt>
      <trkpt lat="46.53228" lon="2.83776">
        <ele>313.53</ele>
        <time>2014-10-11T14:24:15Z</time>
      </trkpt>
      <trkpt lat="46.53249" lon="2.83801">
        <ele>314.49</ele>
        <time>2014-10-11T14:24:36Z</time>
      </trkpt>
      <trkpt lat="46.53266" lon="2.83824">
        <ele>315.93</ele>
        <time>2014-10-11T14:24:54Z</time>
      </trkpt>
      <trkpt lat="46.53284" lon="2.83839">
        <ele>316.89</ele>
        <time>2014-10-11T14:25:30Z</time>
      </trkpt>
      <trkpt lat="46.53309" lon="2.83864">
        <ele>319.3</ele>
        <time>2014-10-11T14:26:02Z</time>
      </trkpt>
      <trkpt lat="46.53328" lon="2.83887">
        <ele>321.22</ele>
        <time>2014-10-11T14:26:22Z</time>
      </trkpt>
      <trkpt lat="46.53334" lon="2.83899">
        <ele>321.7</ele>
        <time>2014-10-11T14:26:34Z</time>
      </trkpt>
      <trkpt lat="46.53336" lon="2.83937">
        <ele>322.66</ele>
        <time>2014-10-11T14:26:56Z</time>
      </trkpt>
      <trkpt lat="46.53341" lon="2.83964">
        <ele>322.66</ele>
        <time>2014-10-11T14:27:10Z</time>
      </trkpt>
      <trkpt lat="46.53343" lon="2.83977">
        <ele>322.66</ele>
        <time>2014-10-11T14:27:20Z</time>
      </trkpt>
      <trkpt lat="46.53342" lon="2.83979">
        <ele>323.14</ele>
        <time>2014-10-11T14:32:22Z</time>
      </trkpt>
    </trkseg>
  </trk>
</gpx>